Observation data for Claude 12 Southwest on 07/22/2019      Previous  Date  Next       Current Mesonet Observations  Soil Data  Daily Summary Page  Observations in Plain Language
KCL1 220500Z 08005KT 24/11 A3009 RMK A01 T02430107  RH  042%=      5-min Rain = 0
KCL1 220501Z 08005KT 24/11 A3009 RMK A01 T02420107  RH  043%=      5-min Rain = 0
KCL1 220502Z 08005KT 24/11 A3009 RMK A01 T02420108  RH  043%=      5-min Rain = 0
KCL1 220503Z 09005KT 24/11 A3009 RMK A01 T02420108  RH  043%=      5-min Rain = 0
KCL1 220504Z 08005KT 24/11 A3009 RMK A01 T02420109  RH  043%=      5-min Rain = 0
KCL1 220505Z 09005KT 24/11 A3009 RMK A01 T02420110  RH  043%=      5-min Rain = 0
KCL1 220506Z 10004KT 24/11 A3009 RMK A01 T02410110  RH  044%=      5-min Rain = 0
KCL1 220507Z 10005KT 24/11 A3009 RMK A01 T02400109  RH  044%=      5-min Rain = 0
KCL1 220508Z 10005KT 24/11 A3009 RMK A01 T02390109  RH  044%=      5-min Rain = 0
KCL1 220509Z 10005KT 24/11 A3009 RMK A01 T02380110  RH  044%=      5-min Rain = 0
KCL1 220510Z 11005KT 24/11 A3009 RMK A01 T02380110  RH  044%=      5-min Rain = 0
KCL1 220511Z 11005KT 24/11 A3009 RMK A01 T02380110  RH  045%=      5-min Rain = 0
KCL1 220512Z 11005KT 24/11 A3009 RMK A01 T02380111  RH  045%=      5-min Rain = 0
KCL1 220513Z 11005KT 24/11 A3009 RMK A01 T02380110  RH  045%=      5-min Rain = 0
KCL1 220514Z 11005KT 24/11 A3009 RMK A01 T02380111  RH  045%=      5-min Rain = 0
KCL1 220515Z 11005KT 24/11 A301 RMK A01 T02380111  RH  045%=      5-min Rain = 0
KCL1 220516Z 11005KT 24/11 A301 RMK A01 T02380111  RH  045%=      5-min Rain = 0
KCL1 220517Z 11005KT 24/11 A301 RMK A01 T02380110  RH  045%=      5-min Rain = 0
KCL1 220518Z 11004KT 24/11 A301 RMK A01 T02380110  RH  044%=      5-min Rain = 0
KCL1 220519Z 12004KT 24/11 A301 RMK A01 T02390111  RH  044%=      5-min Rain = 0
KCL1 220520Z 11004KT 24/11 A301 RMK A01 T02390110  RH  044%=      5-min Rain = 0
KCL1 220521Z 11004KT 24/11 A301 RMK A01 T02400110  RH  044%=      5-min Rain = 0
KCL1 220522Z 12004KT 24/11 A301 RMK A01 T02400110  RH  044%=      5-min Rain = 0
KCL1 220523Z 12004KT 24/11 A301 RMK A01 T02400111  RH  044%=      5-min Rain = 0
KCL1 220524Z 11004KT 24/11 A301 RMK A01 T02410111  RH  044%=      5-min Rain = 0
KCL1 220525Z 12005KT 24/11 A301 RMK A01 T02410110  RH  044%=      5-min Rain = 0
KCL1 220526Z 11005KT 24/11 A301 RMK A01 T02420110  RH  044%=      5-min Rain = 0
KCL1 220527Z 10004KT 24/11 A301 RMK A01 T02430110  RH  043%=      5-min Rain = 0
KCL1 220528Z 09004KT 24/11 A301 RMK A01 T02430110  RH  043%=      5-min Rain = 0
KCL1 220529Z 09004KT 24/11 A301 RMK A01 T02430111  RH  044%=      5-min Rain = 0
KCL1 220530Z 09004KT 24/11 A301 RMK A01 T02410111  RH  044%=      5-min Rain = 0
KCL1 220531Z 08004KT 24/11 A301 RMK A01 T02400111  RH  044%=      5-min Rain = 0
KCL1 220532Z 08004KT 24/11 A301 RMK A01 T02390111  RH  044%=      5-min Rain = 0
KCL1 220533Z 08005KT 24/11 A301 RMK A01 T02390111  RH  045%=      5-min Rain = 0
KCL1 220534Z 08005KT 24/11 A301 RMK A01 T02380111  RH  045%=      5-min Rain = 0
KCL1 220535Z 08006KT 24/11 A301 RMK A01 T02380111  RH  045%=      5-min Rain = 0
KCL1 220536Z 08005KT 24/11 A301 RMK A01 T02370111  RH  045%=      5-min Rain = 0
KCL1 220537Z 07005KT 24/11 A301 RMK A01 T02370112  RH  045%=      5-min Rain = 0
KCL1 220538Z 08005KT 24/11 A301 RMK A01 T02370112  RH  045%=      5-min Rain = 0
KCL1 220539Z 08005KT 24/11 A301 RMK A01 T02360112  RH  046%=      5-min Rain = 0
KCL1 220540Z 09005KT 24/11 A301 RMK A01 T02360113  RH  046%=      5-min Rain = 0
KCL1 220541Z 10005KT 23/11 A301 RMK A01 T02340112  RH  046%=      5-min Rain = 0
KCL1 220542Z 10005KT 23/11 A301 RMK A01 T02340113  RH  046%=      5-min Rain = 0
KCL1 220543Z 10005KT 23/11 A301 RMK A01 T02330113  RH  047%=      5-min Rain = 0
KCL1 220544Z 10005KT 23/11 A3011 RMK A01 T02330113  RH  047%=      5-min Rain = 0
KCL1 220545Z 10005KT 23/11 A3011 RMK A01 T02320113  RH  047%=      5-min Rain = 0
KCL1 220546Z 10005KT 23/11 A3011 RMK A01 T02320113  RH  047%=      5-min Rain = 0
KCL1 220547Z 10005KT 23/11 A3011 RMK A01 T02320113  RH  047%=      5-min Rain = 0
KCL1 220548Z 10005KT 23/11 A3011 RMK A01 T02320114  RH  047%=      5-min Rain = 0
KCL1 220549Z 10005KT 23/11 A3011 RMK A01 T02320114  RH  047%=      5-min Rain = 0
KCL1 220550Z 07005KT 23/11 A3011 RMK A01 T02320114  RH  047%=      5-min Rain = 0
KCL1 220551Z 07005KT 23/11 A3011 RMK A01 T02330114  RH  047%=      5-min Rain = 0
KCL1 220552Z 08005KT 23/11 A3011 RMK A01 T02340114  RH  047%=      5-min Rain = 0
KCL1 220553Z 08005KT 23/12 A3011 RMK A01 T02340115  RH  047%=      5-min Rain = 0
KCL1 220554Z 08005KT 23/12 A3011 RMK A01 T02340115  RH  047%=      5-min Rain = 0
KCL1 220555Z 08004KT 23/12 A3011 RMK A01 T02340115  RH  047%=      5-min Rain = 0
KCL1 220556Z 09004KT 23/12 A3011 RMK A01 T02340115  RH  047%=      5-min Rain = 0
KCL1 220557Z 10004KT 23/12 A3011 RMK A01 T02340115  RH  047%=      5-min Rain = 0
KCL1 220558Z 11004KT 23/12 A3011 RMK A01 T02340115  RH  047%=      5-min Rain = 0
KCL1 220559Z 11003KT 23/12 A3011 RMK A01 T02340115  RH  047%=      5-min Rain = 0
KCL1 220600Z 12002KT 23/12 A3012 RMK A01 T02340115  RH  047%=      5-min Rain = 0
KCL1 220601Z 12001KT 23/12 A3012 RMK A01 T02340115  RH  047%=      5-min Rain = 0
KCL1 220602Z 16002KT 23/12 A3012 RMK A01 T02340115  RH  047%=      5-min Rain = 0
KCL1 220603Z 17003KT 24/11 A3012 RMK A01 T02350114  RH  047%=      5-min Rain = 0
KCL1 220604Z 17004KT 24/11 A3012 RMK A01 T02360113  RH  046%=      5-min Rain = 0
KCL1 220605Z 17004KT 24/11 A3012 RMK A01 T02360112  RH  046%=      5-min Rain = 0
KCL1 220606Z 18005KT 24/11 A3012 RMK A01 T02380113  RH  045%=      5-min Rain = 0
KCL1 220607Z 18005KT 24/11 A3012 RMK A01 T02400112  RH  045%=      5-min Rain = 0
KCL1 220608Z 19005KT 24/11 A3013 RMK A01 T02430111  RH  043%=      5-min Rain = 0
KCL1 220609Z 19005KT 25/11 A3013 RMK A01 T02480110  RH  042%=      5-min Rain = 0
KCL1 220610Z 20005KT 25/11 A3013 RMK A01 T02520113  RH  042%=      5-min Rain = 0
KCL1 220611Z 19004KT 25/11 A3013 RMK A01 T02520114  RH  042%=      5-min Rain = 0
KCL1 220612Z 20004KT 25/11 A3013 RMK A01 T02520114  RH  042%=      5-min Rain = 0
KCL1 220613Z 20003KT 25/11 A3013 RMK A01 T02530112  RH  041%=      5-min Rain = 0
KCL1 220614Z 22003KT 25/11 A3013 RMK A01 T02540110  RH  040%=      5-min Rain = 0
KCL1 220615Z 21003KT 26/11 A3013 RMK A01 T02570109  RH  039%=      5-min Rain = 0
KCL1 220616Z 22003KT 26/11 A3013 RMK A01 T02600109  RH  039%=      5-min Rain = 0
KCL1 220617Z 22002KT 26/11 A3013 RMK A01 T02620110  RH  038%=      5-min Rain = 0
KCL1 220618Z 21002KT 26/11 A3013 RMK A01 T02640110  RH  038%=      5-min Rain = 0
KCL1 220619Z 20002KT 26/11 A3013 RMK A01 T02640111  RH  038%=      5-min Rain = 0
KCL1 220620Z 20001KT 26/11 A3013 RMK A01 T02640111  RH  039%=      5-min Rain = 0
KCL1 220621Z 18001KT 26/11 A3013 RMK A01 T02630112  RH  039%=      5-min Rain = 0
KCL1 220622Z 19001KT 26/11 A3013 RMK A01 T02610112  RH  039%=      5-min Rain = 0
KCL1 220623Z 19001KT 26/11 A3014 RMK A01 T02590112  RH  040%=      5-min Rain = 0
KCL1 220624Z 19002KT 26/11 A3014 RMK A01 T02590110  RH  039%=      5-min Rain = 0
KCL1 220625Z 18001KT 26/12 A3014 RMK A01 T02590115  RH  041%=      5-min Rain = 0
KCL1 220626Z 05002KT 25/12 A3014 RMK A01 T02540118  RH  043%=      5-min Rain = 0
KCL1 220627Z 07002KT 25/12 A3014 RMK A01 T02490117  RH  044%=      5-min Rain = 0
KCL1 220628Z 06003KT 25/12 A3014 RMK A01 T02460116  RH  044%=      5-min Rain = 0
KCL1 220629Z 05003KT 25/12 A3014 RMK A01 T02450116  RH  044%=      5-min Rain = 0
KCL1 220630Z 05002KT 25/12 A3014 RMK A01 T02450116  RH  045%=      5-min Rain = 0
KCL1 220631Z 06003KT 24/12 A3014 RMK A01 T02440118  RH  045%=      5-min Rain = 0
KCL1 220632Z 06002KT 24/12 A3014 RMK A01 T02430118  RH  046%=      5-min Rain = 0
KCL1 220633Z 06001KT 24/12 A3015 RMK A01 T02410118  RH  046%=      5-min Rain = 0
KCL1 220634Z 06000KT 24/12 A3015 RMK A01 T02410117  RH  046%=      5-min Rain = 0
KCL1 220635Z 07000KT 24/12 A3015 RMK A01 T02400117  RH  046%=      5-min Rain = 0
KCL1 220636Z 00000KT 24/12 A3015 RMK A01 T02400118  RH  046%=      5-min Rain = 0
KCL1 220637Z 13001KT 24/12 A3015 RMK A01 T02400117  RH  046%=      5-min Rain = 0
KCL1 220638Z 16001KT 24/12 A3015 RMK A01 T02400117  RH  046%=      5-min Rain = 0
KCL1 220639Z 17002KT 24/12 A3015 RMK A01 T02400117  RH  046%=      5-min Rain = 0
KCL1 220640Z 19002KT 24/12 A3015 RMK A01 T02400117  RH  046%=      5-min Rain = 0
KCL1 220641Z 18002KT 24/12 A3015 RMK A01 T02390117  RH  046%=      5-min Rain = 0
KCL1 220642Z 18003KT 24/12 A3015 RMK A01 T02390117  RH  046%=      5-min Rain = 0
KCL1 220643Z 20003KT 24/12 A3015 RMK A01 T02380117  RH  046%=      5-min Rain = 0
KCL1 220644Z 21002KT 24/12 A3015 RMK A01 T02380115  RH  046%=      5-min Rain = 0
KCL1 220645Z 20002KT 24/11 A3015 RMK A01 T02380114  RH  046%=      5-min Rain = 0
KCL1 220646Z 20002KT 24/12 A3015 RMK A01 T02390115  RH  046%=      5-min Rain = 0
KCL1 220647Z 17002KT 24/12 A3015 RMK A01 T02400115  RH  045%=      5-min Rain = 0
KCL1 220648Z 17001KT 24/12 A3015 RMK A01 T02400115  RH  045%=      5-min Rain = 0
KCL1 220649Z 17001KT 24/11 A3014 RMK A01 T02400114  RH  045%=      5-min Rain = 0
KCL1 220650Z 16002KT 24/11 A3014 RMK A01 T02410113  RH  045%=      5-min Rain = 0
KCL1 220651Z 15002KT 24/12 A3014 RMK A01 T02410115  RH  045%=      5-min Rain = 0
KCL1 220652Z 15003KT 24/12 A3014 RMK A01 T02400115  RH  045%=      5-min Rain = 0
KCL1 220653Z 15003KT 24/12 A3014 RMK A01 T02390115  RH  046%=      5-min Rain = 0
KCL1 220654Z 15004KT 24/11 A3014 RMK A01 T02380114  RH  046%=      5-min Rain = 0
KCL1 220655Z 14004KT 24/11 A3014 RMK A01 T02370113  RH  046%=      5-min Rain = 0
KCL1 220656Z 14004KT 24/11 A3014 RMK A01 T02370114  RH  046%=      5-min Rain = 0
KCL1 220657Z 15003KT 24/11 A3014 RMK A01 T02370114  RH  046%=      5-min Rain = 0
KCL1 220658Z 14003KT 24/11 A3014 RMK A01 T02370113  RH  046%=      5-min Rain = 0
KCL1 220659Z 14003KT 24/11 A3014 RMK A01 T02370114  RH  046%=      5-min Rain = 0
KCL1 220700Z 14003KT 24/11 A3014 RMK A01 T02360114  RH  046%=      5-min Rain = 0
KCL1 220701Z 14003KT 24/12 A3014 RMK A01 T02350115  RH  047%=      5-min Rain = 0
KCL1 220702Z 13004KT 23/12 A3014 RMK A01 T02340116  RH  047%=      5-min Rain = 0
KCL1 220703Z 13003KT 23/12 A3014 RMK A01 T02330115  RH  047%=      5-min Rain = 0
KCL1 220704Z 13004KT 23/12 A3014 RMK A01 T02330115  RH  047%=      5-min Rain = 0
KCL1 220705Z 13004KT 23/11 A3014 RMK A01 T02330114  RH  047%=      5-min Rain = 0
KCL1 220706Z 13004KT 23/11 A3014 RMK A01 T02340113  RH  047%=      5-min Rain = 0
KCL1 220707Z 12004KT 24/11 A3014 RMK A01 T02360114  RH  046%=      5-min Rain = 0
KCL1 220708Z 11003KT 24/12 A3014 RMK A01 T02370116  RH  047%=      5-min Rain = 0
KCL1 220709Z 10003KT 24/12 A3014 RMK A01 T02360116  RH  047%=      5-min Rain = 0
KCL1 220710Z 09004KT 24/12 A3014 RMK A01 T02360116  RH  047%=      5-min Rain = 0
KCL1 220711Z 09003KT 24/12 A3014 RMK A01 T02360117  RH  047%=      5-min Rain = 0
KCL1 220712Z 09004KT 24/12 A3014 RMK A01 T02350117  RH  047%=      5-min Rain = 0
KCL1 220713Z 09004KT 24/12 A3014 RMK A01 T02350117  RH  048%=      5-min Rain = 0
KCL1 220714Z 10004KT 23/12 A3014 RMK A01 T02340117  RH  048%=      5-min Rain = 0
KCL1 220715Z 10003KT 23/12 A3014 RMK A01 T02340116  RH  047%=      5-min Rain = 0
KCL1 220716Z 11003KT 24/12 A3014 RMK A01 T02350116  RH  047%=      5-min Rain = 0
KCL1 220717Z 11004KT 24/12 A3014 RMK A01 T02360115  RH  047%=      5-min Rain = 0
KCL1 220718Z 11004KT 24/12 A3014 RMK A01 T02370116  RH  046%=      5-min Rain = 0
KCL1 220719Z 11004KT 24/12 A3014 RMK A01 T02380116  RH  046%=      5-min Rain = 0
KCL1 220720Z 12004KT 24/12 A3014 RMK A01 T02380116  RH  047%=      5-min Rain = 0
KCL1 220721Z 12004KT 24/12 A3014 RMK A01 T02370116  RH  047%=      5-min Rain = 0
KCL1 220722Z 12004KT 24/12 A3014 RMK A01 T02370115  RH  046%=      5-min Rain = 0
KCL1 220723Z 12004KT 24/12 A3014 RMK A01 T02380115  RH  046%=      5-min Rain = 0
KCL1 220724Z 12004KT 24/12 A3014 RMK A01 T02380116  RH  046%=      5-min Rain = 0
KCL1 220725Z 12003KT 24/12 A3014 RMK A01 T02380116  RH  046%=      5-min Rain = 0
KCL1 220726Z 12003KT 24/12 A3014 RMK A01 T02380115  RH  046%=      5-min Rain = 0
KCL1 220727Z 12003KT 24/11 A3014 RMK A01 T02390114  RH  045%=      5-min Rain = 0
KCL1 220728Z 11003KT 24/11 A3014 RMK A01 T02410112  RH  044%=      5-min Rain = 0
KCL1 220729Z 10003KT 24/11 A3014 RMK A01 T02440112  RH  043%=      5-min Rain = 0
KCL1 220730Z 08003KT 25/11 A3014 RMK A01 T02460114  RH  043%=      5-min Rain = 0
KCL1 220731Z 04005KT 25/12 A3014 RMK A01 T02450115  RH  044%=      5-min Rain = 0
KCL1 220732Z 02007KT 24/12 A3014 RMK A01 T02420115  RH  045%=      5-min Rain = 0
KCL1 220733Z 03006KT 24/12 A3014 RMK A01 T02370117  RH  047%=      5-min Rain = 0
KCL1 220734Z 03008KT 23/12 A3014 RMK A01 T02340119  RH  048%=      5-min Rain = 0
KCL1 220735Z 03007KT 23/12 A3014 RMK A01 T02320118  RH  049%=      5-min Rain = 0
KCL1 220736Z 03007KT 23/12 A3014 RMK A01 T02340118  RH  048%=      5-min Rain = 0
KCL1 220737Z 04007KT 24/12 A3014 RMK A01 T02350120  RH  048%=      5-min Rain = 0
KCL1 220738Z 04006KT 24/12 A3014 RMK A01 T02350122  RH  049%=      5-min Rain = 0
KCL1 220739Z 04006KT 23/12 A3014 RMK A01 T02340122  RH  049%=      5-min Rain = 0
KCL1 220740Z 04007KT 23/12 A3014 RMK A01 T02330122  RH  050%=      5-min Rain = 0
KCL1 220741Z 04007KT 23/12 A3014 RMK A01 T02320123  RH  050%=      5-min Rain = 0
KCL1 220742Z 04007KT 23/12 A3014 RMK A01 T02310123  RH  050%=      5-min Rain = 0
KCL1 220743Z 04007KT 23/12 A3014 RMK A01 T02320123  RH  051%=      5-min Rain = 0
KCL1 220744Z 05007KT 23/12 A3014 RMK A01 T02310123  RH  051%=      5-min Rain = 0
KCL1 220745Z 05007KT 23/12 A3014 RMK A01 T02310123  RH  050%=      5-min Rain = 0
KCL1 220746Z 04007KT 23/12 A3014 RMK A01 T02320123  RH  050%=      5-min Rain = 0
KCL1 220747Z 04007KT 23/12 A3014 RMK A01 T02320124  RH  050%=      5-min Rain = 0
KCL1 220748Z 04007KT 23/12 A3014 RMK A01 T02320124  RH  051%=      5-min Rain = 0
KCL1 220749Z 04007KT 23/13 A3014 RMK A01 T02310125  RH  051%=      5-min Rain = 0
KCL1 220750Z 04008KT 23/13 A3014 RMK A01 T02310125  RH  051%=      5-min Rain = 0
KCL1 220751Z 04007KT 23/13 A3014 RMK A01 T02310126  RH  052%=      5-min Rain = 0
KCL1 220752Z 04007KT 23/13 A3014 RMK A01 T02300126  RH  052%=      5-min Rain = 0
KCL1 220753Z 05007KT 23/13 A3014 RMK A01 T02300126  RH  052%=      5-min Rain = 0
KCL1 220754Z 05006KT 23/13 A3014 RMK A01 T02300126  RH  052%=      5-min Rain = 0
KCL1 220755Z 04006KT 23/13 A3014 RMK A01 T02300126  RH  052%=      5-min Rain = 0
KCL1 220756Z 04007KT 23/13 A3014 RMK A01 T02290127  RH  052%=      5-min Rain = 0
KCL1 220757Z 05007KT 23/13 A3014 RMK A01 T02300126  RH  052%=      5-min Rain = 0
KCL1 220758Z 06006KT 23/13 A3014 RMK A01 T02300126  RH  052%=      5-min Rain = 0
KCL1 220759Z 06006KT 23/13 A3014 RMK A01 T02310126  RH  052%=      5-min Rain = 0
KCL1 220800Z 06006KT 23/13 A3014 RMK A01 T02320127  RH  051%=      5-min Rain = 0
KCL1 220801Z 06007KT 23/13 A3014 RMK A01 T02310126  RH  051%=      5-min Rain = 0
KCL1 220802Z 07006KT 23/13 A3014 RMK A01 T02320126  RH  051%=      5-min Rain = 0
KCL1 220803Z 07006KT 23/13 A3013 RMK A01 T02320126  RH  051%=      5-min Rain = 0
KCL1 220804Z 07006KT 23/13 A3013 RMK A01 T02320126  RH  051%=      5-min Rain = 0
KCL1 220805Z 07006KT 23/13 A3013 RMK A01 T02310126  RH  051%=      5-min Rain = 0
KCL1 220806Z 07006KT 23/13 A3013 RMK A01 T02320125  RH  051%=      5-min Rain = 0
KCL1 220807Z 07006KT 23/13 A3013 RMK A01 T02320125  RH  051%=      5-min Rain = 0
KCL1 220808Z 06006KT 23/13 A3013 RMK A01 T02310125  RH  051%=      5-min Rain = 0
KCL1 220809Z 07005KT 23/13 A3013 RMK A01 T02310125  RH  051%=      5-min Rain = 0
KCL1 220810Z 07006KT 23/13 A3014 RMK A01 T02320126  RH  051%=      5-min Rain = 0
KCL1 220811Z 06005KT 23/13 A3014 RMK A01 T02320126  RH  051%=      5-min Rain = 0
KCL1 220812Z 06006KT 23/13 A3014 RMK A01 T02310126  RH  052%=      5-min Rain = 0
KCL1 220813Z 06005KT 23/13 A3014 RMK A01 T02310127  RH  052%=      5-min Rain = 0
KCL1 220814Z 05005KT 23/13 A3014 RMK A01 T02300126  RH  052%=      5-min Rain = 0
KCL1 220815Z 05005KT 23/13 A3014 RMK A01 T02300127  RH  052%=      5-min Rain = 0
KCL1 220816Z 04006KT 23/13 A3014 RMK A01 T02300127  RH  052%=      5-min Rain = 0
KCL1 220817Z 04006KT 23/13 A3014 RMK A01 T02290127  RH  052%=      5-min Rain = 0
KCL1 220818Z 04007KT 23/13 A3014 RMK A01 T02300128  RH  053%=      5-min Rain = 0
KCL1 220819Z 04008KT 23/13 A3014 RMK A01 T02300128  RH  053%=      5-min Rain = 0
KCL1 220820Z 03007KT 23/13 A3014 RMK A01 T02300128  RH  053%=      5-min Rain = 0
KCL1 220821Z 03007KT 23/13 A3014 RMK A01 T02290128  RH  053%=      5-min Rain = 0
KCL1 220822Z 03008KT 23/13 A3014 RMK A01 T02300128  RH  053%=      5-min Rain = 0
KCL1 220823Z 02008KT 23/13 A3014 RMK A01 T02300128  RH  053%=      5-min Rain = 0
KCL1 220824Z 02009KT 23/13 A3014 RMK A01 T02300128  RH  052%=      5-min Rain = 0
KCL1 220825Z 02009KT 23/13 A3014 RMK A01 T02310127  RH  052%=      5-min Rain = 0
KCL1 220826Z 02010KT 23/13 A3014 RMK A01 T02320127  RH  052%=      5-min Rain = 0
KCL1 220827Z 03008KT 23/13 A3014 RMK A01 T02320127  RH  051%=      5-min Rain = 0
KCL1 220828Z 03010KT 23/13 A3014 RMK A01 T02330127  RH  051%=      5-min Rain = 0
KCL1 220829Z 03011KT 23/13 A3014 RMK A01 T02330127  RH  051%=      5-min Rain = 0
KCL1 220830Z 03009KT 23/13 A3014 RMK A01 T02330127  RH  051%=      5-min Rain = 0
KCL1 220831Z 04009KT 23/13 A3014 RMK A01 T02330128  RH  052%=      5-min Rain = 0
KCL1 220832Z 04009KT 23/13 A3014 RMK A01 T02330128  RH  052%=      5-min Rain = 0
KCL1 220833Z 04008KT 23/13 A3014 RMK A01 T02330129  RH  052%=      5-min Rain = 0
KCL1 220834Z 04010KT 23/13 A3014 RMK A01 T02320130  RH  052%=      5-min Rain = 0
KCL1 220835Z 04011KT 23/13 A3014 RMK A01 T02320130  RH  053%=      5-min Rain = 0
KCL1 220836Z 04009KT 23/13 A3014 RMK A01 T02320130  RH  053%=      5-min Rain = 0
KCL1 220837Z 04010KT 23/13 A3014 RMK A01 T02320131  RH  053%=      5-min Rain = 0
KCL1 220838Z 04008KT 23/13 A3014 RMK A01 T02320131  RH  053%=      5-min Rain = 0
KCL1 220839Z 04011KT 23/13 A3014 RMK A01 T02320132  RH  053%=      5-min Rain = 0
KCL1 220840Z 05010KT 23/13 A3014 RMK A01 T02320132  RH  053%=      5-min Rain = 0
KCL1 220841Z 05012KT 23/13 A3014 RMK A01 T02330133  RH  053%=      5-min Rain = 0
KCL1 220842Z 05011KT 23/13 A3014 RMK A01 T02330133  RH  053%=      5-min Rain = 0
KCL1 220843Z 05012KT 23/13 A3014 RMK A01 T02330133  RH  053%=      5-min Rain = 0
KCL1 220844Z 05011KT 23/13 A3014 RMK A01 T02330133  RH  053%=      5-min Rain = 0
KCL1 220845Z 05012KT 23/13 A3014 RMK A01 T02340134  RH  053%=      5-min Rain = 0
KCL1 220846Z 05011KT 23/13 A3014 RMK A01 T02340134  RH  053%=      5-min Rain = 0
KCL1 220847Z 05012KT 23/13 A3014 RMK A01 T02330134  RH  054%=      5-min Rain = 0
KCL1 220848Z 05012KT 23/13 A3014 RMK A01 T02340134  RH  054%=      5-min Rain = 0
KCL1 220849Z 05013KT 23/14 A3014 RMK A01 T02340135  RH  054%=      5-min Rain = 0
KCL1 220850Z 05012KT 23/14 A3014 RMK A01 T02340135  RH  054%=      5-min Rain = 0
KCL1 220851Z 05012KT 23/14 A3014 RMK A01 T02340136  RH  054%=      5-min Rain = 0
KCL1 220852Z 05013KT 23/14 A3014 RMK A01 T02340136  RH  054%=      5-min Rain = 0
KCL1 220853Z 05011KT 23/14 A3014 RMK A01 T02340137  RH  054%=      5-min Rain = 0
KCL1 220854Z 05011KT 23/14 A3013 RMK A01 T02340138  RH  055%=      5-min Rain = 0
KCL1 220855Z 05011KT 23/14 A3013 RMK A01 T02330139  RH  055%=      5-min Rain = 0
KCL1 220856Z 05011KT 23/14 A3013 RMK A01 T02330140  RH  056%=      5-min Rain = 0
KCL1 220857Z 05012KT 23/14 A3014 RMK A01 T02340143  RH  057%=      5-min Rain = 0
KCL1 220858Z 05011G16KT 23/15 A3014 RMK A01 T02330146  RH  058%=      5-min Rain = 0
KCL1 220859Z 04014KT 23/15 A3014 RMK A01 T02340147  RH  058%=      5-min Rain = 0
KCL1 220900Z 04015KT 23/15 A3014 RMK A01 T02340149  RH  059%=      5-min Rain = 0
KCL1 220901Z 04016KT 23/15 A3014 RMK A01 T02340153  RH  060%=      5-min Rain = 0
KCL1 220902Z 04014KT 23/16 A3014 RMK A01 T02340156  RH  062%=      5-min Rain = 0
KCL1 220903Z 05013G18KT 23/16 A3014 RMK A01 T02330158  RH  063%=      5-min Rain = 0
KCL1 220904Z 05015G21KT 23/16 A3014 RMK A01 T02320162  RH  065%=      5-min Rain = 0
KCL1 220905Z 05017KT 23/16 A3014 RMK A01 T02320164  RH  066%=      5-min Rain = 0
KCL1 220906Z 05017KT 23/17 A3014 RMK A01 T02310166  RH  067%=      5-min Rain = 0
KCL1 220907Z 06016KT 23/17 A3014 RMK A01 T02310168  RH  068%=      5-min Rain = 0
KCL1 220908Z 05018KT 23/17 A3014 RMK A01 T02300173  RH  070%=      5-min Rain = 0
KCL1 220909Z 05015KT 23/18 A3014 RMK A01 T02300176  RH  072%=      5-min Rain = 0
KCL1 220910Z 05015G21KT 23/18 A3014 RMK A01 T02290178  RH  073%=      5-min Rain = 0
KCL1 220911Z 05013KT 23/18 A3014 RMK A01 T02280180  RH  074%=      5-min Rain = 0
KCL1 220912Z 05016G21KT 23/18 A3014 RMK A01 T02270183  RH  076%=      5-min Rain = 0
KCL1 220913Z 05016G22KT 23/19 A3014 RMK A01 T02270187  RH  078%=      5-min Rain = 0
KCL1 220914Z 05017KT 23/19 A3014 RMK A01 T02260188  RH  079%=      5-min Rain = 0
KCL1 220915Z 05018KT 23/19 A3014 RMK A01 T02260190  RH  080%=      5-min Rain = 0
KCL1 220916Z 05018KT 23/19 A3014 RMK A01 T02250193  RH  082%=      5-min Rain = 0
KCL1 220917Z 05018G23KT 23/19 A3014 RMK A01 T02250194  RH  083%=      5-min Rain = 0
KCL1 220918Z 05018KT 22/20 A3014 RMK A01 T02240195  RH  083%=      5-min Rain = 0
KCL1 220919Z 05021KT 22/20 A3014 RMK A01 T02240196  RH  084%=      5-min Rain = 0
KCL1 220920Z 05016KT 22/20 A3014 RMK A01 T02230197  RH  085%=      5-min Rain = 0
KCL1 220921Z 05015KT 22/20 A3014 RMK A01 T02230198  RH  086%=      5-min Rain = 0
KCL1 220922Z 05017KT 22/20 A3014 RMK A01 T02220198  RH  086%=      5-min Rain = 0
KCL1 220923Z 06018G23KT 22/20 A3014 RMK A01 T02220199  RH  087%=      5-min Rain = 0
KCL1 220924Z 05019G24KT 22/20 A3014 RMK A01 T02220200  RH  088%=      5-min Rain = 0
KCL1 220925Z 06019G26KT 22/20 A3014 RMK A01 T02210201  RH  088%=      5-min Rain = 0
KCL1 220926Z 06019G24KT 22/20 A3015 RMK A01 T02210202  RH  089%=      5-min Rain = 0
KCL1 220927Z 05017KT 22/20 A3014 RMK A01 T02210203  RH  089%=      5-min Rain = 0
KCL1 220928Z 05017KT 22/20 A3015 RMK A01 T02200203  RH  090%=      5-min Rain = 0
KCL1 220929Z 06016G21KT 22/20 A3015 RMK A01 T02200204  RH  091%=      5-min Rain = 0
KCL1 220930Z 05017G23KT 22/20 A3015 RMK A01 T02190204  RH  091%=      5-min Rain = 0
KCL1 220931Z 05016G21KT 22/21 A3015 RMK A01 T02190205  RH  092%=      5-min Rain = 0
KCL1 220932Z 05016KT 22/21 A3015 RMK A01 T02190205  RH  092%=      5-min Rain = 0
KCL1 220933Z 06014KT 22/21 A3015 RMK A01 T02180205  RH  092%=      5-min Rain = 0
KCL1 220934Z 06013KT 22/21 A3015 RMK A01 T02180206  RH  093%=      5-min Rain = 0
KCL1 220935Z 06014G20KT 22/21 A3015 RMK A01 T02170207  RH  094%=      5-min Rain = 0
KCL1 220936Z 05017KT 22/21 A3015 RMK A01 T02170208  RH  095%=      5-min Rain = 0
KCL1 220937Z 06017KT 22/21 A3015 RMK A01 T02170209  RH  095%=      5-min Rain = 0
KCL1 220938Z 06013KT 22/21 A3015 RMK A01 T02160209  RH  095%=      5-min Rain = 0
KCL1 220939Z 06018KT 22/21 A3015 RMK A01 T02160209  RH  096%=      5-min Rain = 0
KCL1 220940Z 06016G21KT 22/21 A3015 RMK A01 T02160210  RH  096%=      5-min Rain = 0
KCL1 220941Z 05016KT 22/21 A3015 RMK A01 T02160210  RH  097%=      5-min Rain = 0
KCL1 220942Z 05015KT 22/21 A3015 RMK A01 T02150210  RH  097%=      5-min Rain = 0
KCL1 220943Z 06014KT 22/21 A3015 RMK A01 T02150210  RH  097%=      5-min Rain = 0
KCL1 220944Z 06013G18KT 22/21 A3015 RMK A01 T02150210  RH  097%=      5-min Rain = 0
KCL1 220945Z 06016KT 21/21 A3016 RMK A01 T02140211  RH  098%=      5-min Rain = 0
KCL1 220946Z 06015KT 22/21 A3015 RMK A01 T02150211  RH  098%=      5-min Rain = 0
KCL1 220947Z 06015KT 21/21 A3015 RMK A01 T02140211  RH  098%=      5-min Rain = 0
KCL1 220948Z 06016KT 21/21 A3016 RMK A01 T02140211  RH  098%=      5-min Rain = 0
KCL1 220949Z 05016KT 21/21 A3015 RMK A01 T02140211  RH  098%=      5-min Rain = 0
KCL1 220950Z 06013G18KT 21/21 A3015 RMK A01 T02140211  RH  098%=      5-min Rain = 0
KCL1 220951Z 06010KT 21/21 A3015 RMK A01 T02140211  RH  098%=      5-min Rain = 0
KCL1 220952Z 05012KT 21/21 A3015 RMK A01 T02130211  RH  099%=      5-min Rain = 0
KCL1 220953Z 05012KT 21/21 A3016 RMK A01 T02130212  RH  099%=      5-min Rain = 0
KCL1 220954Z 06011KT 21/21 A3016 RMK A01 T02130212  RH  099%=      5-min Rain = 0
KCL1 220955Z 05012KT 21/21 A3016 RMK A01 T02130212  RH  099%=      5-min Rain = 0
KCL1 220956Z 05010KT 21/21 A3016 RMK A01 T02130212  RH  099%=      5-min Rain = 0
KCL1 220957Z 05009KT 21/21 A3016 RMK A01 T02130211  RH  099%=      5-min Rain = 0
KCL1 220958Z 05010G16KT 21/21 A3016 RMK A01 T02130211  RH  099%=      5-min Rain = 0
KCL1 220959Z 06015KT 21/21 A3016 RMK A01 T02130211  RH  099%=      5-min Rain = 0
KCL1 221000Z 06014KT 21/21 A3016 RMK A01 T02120210  RH  098%=      5-min Rain = 0
KCL1 221001Z 06015KT 21/21 A3016 RMK A01 T02130209  RH  098%=      5-min Rain = 0
KCL1 221002Z 06015KT 21/21 A3016 RMK A01 T02130207  RH  096%=      5-min Rain = 0
KCL1 221003Z 06017KT 21/21 A3016 RMK A01 T02130205  RH  096%=      5-min Rain = 0
KCL1 221004Z 06016KT 21/20 A3016 RMK A01 T02120203  RH  094%=      5-min Rain = 0
KCL1 221005Z 06013KT 21/20 A3016 RMK A01 T02110201  RH  094%=      5-min Rain = 0
KCL1 221006Z 05014KT 21/20 A3017 RMK A01 T02100200  RH  094%=      5-min Rain = 0
KCL1 221007Z 05012KT 21/20 A3017 RMK A01 T02090200  RH  095%=      5-min Rain = 0
KCL1 221008Z 05011KT 21/20 A3017 RMK A01 T02090201  RH  095%=      5-min Rain = 0
KCL1 221009Z 05014KT 21/20 A3017 RMK A01 T02080201  RH  095%=      5-min Rain = 0
KCL1 221010Z 05013KT 21/20 A3017 RMK A01 T02080200  RH  095%=      5-min Rain = 0
KCL1 221011Z 05015KT 21/20 A3017 RMK A01 T02080199  RH  095%=      5-min Rain = 0
KCL1 221012Z 05016G21KT 21/20 A3017 RMK A01 T02080198  RH  094%=      5-min Rain = 0
KCL1 221013Z 05017KT 21/20 A3017 RMK A01 T02070197  RH  094%=      5-min Rain = 0
KCL1 221014Z 05015G20KT 21/20 A3017 RMK A01 T02070197  RH  094%=      5-min Rain = 0
KCL1 221015Z 05015KT 21/20 A3017 RMK A01 T02070196  RH  094%=      5-min Rain = 0
KCL1 221016Z 05015KT 21/20 A3017 RMK A01 T02060196  RH  094%=      5-min Rain = 0
KCL1 221017Z 05015KT 21/20 A3017 RMK A01 T02060196  RH  094%=      5-min Rain = 0
KCL1 221018Z 05015KT 21/20 A3018 RMK A01 T02060196  RH  094%=      5-min Rain = 0
KCL1 221019Z 05015KT 21/20 A3018 RMK A01 T02050196  RH  094%=      5-min Rain = 0
KCL1 221020Z 05015KT 21/20 A3018 RMK A01 T02050196  RH  094%=      5-min Rain = 0
KCL1 221021Z 05013KT 21/20 A3018 RMK A01 T02050196  RH  094%=      5-min Rain = 0
KCL1 221022Z 05015G22KT 21/20 A3018 RMK A01 T02050196  RH  095%=      5-min Rain = 0
KCL1 221023Z 05016KT 20/20 A3018 RMK A01 T02040196  RH  095%=      5-min Rain = 0
KCL1 221024Z 05014KT 20/20 A3018 RMK A01 T02040196  RH  095%=      5-min Rain = 0
KCL1 221025Z 05013KT 20/20 A3018 RMK A01 T02040196  RH  095%=      5-min Rain = 0
KCL1 221026Z 05013KT 20/20 A3018 RMK A01 T02040196  RH  095%=      5-min Rain = 0
KCL1 221027Z 05012KT 20/20 A3018 RMK A01 T02030196  RH  096%=      5-min Rain = 0
KCL1 221028Z 05012KT 20/20 A3018 RMK A01 T02040197  RH  096%=      5-min Rain = 0
KCL1 221029Z 05013KT 20/20 A3018 RMK A01 T02030196  RH  096%=      5-min Rain = 0
KCL1 221030Z 05017KT 20/20 A3018 RMK A01 T02030197  RH  096%=      5-min Rain = 0
KCL1 221031Z 05013G18KT 20/20 A3018 RMK A01 T02030196  RH  096%=      5-min Rain = 0
KCL1 221032Z 05014G19KT 20/20 A3018 RMK A01 T02030196  RH  096%=      5-min Rain = 0
KCL1 221033Z 05015KT 20/20 A3018 RMK A01 T02030195  RH  096%=      5-min Rain = 0
KCL1 221034Z 05013KT 20/20 A3018 RMK A01 T02030195  RH  095%=      5-min Rain = 0
KCL1 221035Z 05014KT 20/19 A3018 RMK A01 T02020194  RH  095%=      5-min Rain = 0
KCL1 221036Z 05013G19KT 20/19 A3018 RMK A01 T02020194  RH  095%=      5-min Rain = 0
KCL1 221037Z 05015KT 20/19 A3018 RMK A01 T02020193  RH  094%=      5-min Rain = 0
KCL1 221038Z 04014KT 20/19 A3019 RMK A01 T02020192  RH  094%=      5-min Rain = 0
KCL1 221039Z 05013G18KT 20/19 A3019 RMK A01 T02020192  RH  094%=      5-min Rain = 0
KCL1 221040Z 04014KT 20/19 A3019 RMK A01 T02020191  RH  093%=      5-min Rain = 0
KCL1 221041Z 05016G21KT 20/19 A3019 RMK A01 T02020190  RH  093%=      5-min Rain = 0
KCL1 221042Z 05011KT 20/19 A3019 RMK A01 T02020189  RH  092%=      5-min Rain = 0
KCL1 221043Z 04013KT 20/19 A3019 RMK A01 T02020188  RH  092%=      5-min Rain = 0
KCL1 221044Z 04015KT 20/19 A3019 RMK A01 T02020188  RH  092%=      5-min Rain = 0
KCL1 221045Z 04014KT 20/19 A3019 RMK A01 T02020187  RH  091%=      5-min Rain = 0
KCL1 221046Z 04016KT 20/19 A3019 RMK A01 T02020187  RH  091%=      5-min Rain = 0
KCL1 221047Z 04014KT 20/19 A3019 RMK A01 T02020187  RH  091%=      5-min Rain = 0
KCL1 221048Z 04014KT 20/19 A302 RMK A01 T02020187  RH  091%=      5-min Rain = 0
KCL1 221049Z 04012KT 20/19 A302 RMK A01 T02010186  RH  091%=      5-min Rain = 0
KCL1 221050Z 04014KT 20/19 A302 RMK A01 T02010186  RH  091%=      5-min Rain = 0
KCL1 221051Z 04014KT 20/19 A302 RMK A01 T02010186  RH  091%=      5-min Rain = 0
KCL1 221052Z 04012KT 20/19 A302 RMK A01 T02000185  RH  091%=      5-min Rain = 0
KCL1 221053Z 04015KT 20/19 A302 RMK A01 T02000185  RH  091%=      5-min Rain = 0
KCL1 221054Z 04014KT 20/19 A302 RMK A01 T02000185  RH  091%=      5-min Rain = 0
KCL1 221055Z 04013KT 20/19 A302 RMK A01 T02000185  RH  091%=      5-min Rain = 0
KCL1 221056Z 03014KT 20/18 A302 RMK A01 T02000184  RH  091%=      5-min Rain = 0
KCL1 221057Z 03014KT 20/18 A302 RMK A01 T02000184  RH  091%=      5-min Rain = 0
KCL1 221058Z 04014KT 20/18 A302 RMK A01 T02000184  RH  090%=      5-min Rain = 0
KCL1 221059Z 03013KT 20/18 A302 RMK A01 T02000184  RH  090%=      5-min Rain = 0
KCL1 221100Z 03014KT 20/18 A302 RMK A01 T02000183  RH  090%=      5-min Rain = 0
KCL1 221101Z 03012KT 20/18 A3021 RMK A01 T02000183  RH  090%=      5-min Rain = 0
KCL1 221102Z 03012KT 20/18 A3021 RMK A01 T02000182  RH  090%=      5-min Rain = 0
KCL1 221103Z 03011KT 20/18 A3021 RMK A01 T02000182  RH  089%=      5-min Rain = 0
KCL1 221104Z 03010KT 20/18 A3021 RMK A01 T01990182  RH  090%=      5-min Rain = 0
KCL1 221105Z 02012KT 20/18 A3021 RMK A01 T01990182  RH  090%=      5-min Rain = 0
KCL1 221106Z 03012G17KT 20/18 A3021 RMK A01 T01990182  RH  090%=      5-min Rain = 0
KCL1 221107Z 03013G18KT 20/18 A3021 RMK A01 T01980182  RH  090%=      5-min Rain = 0
KCL1 221108Z 03015KT 20/18 A3021 RMK A01 T01980181  RH  090%=      5-min Rain = 0
KCL1 221109Z 03012KT 20/18 A3021 RMK A01 T01980181  RH  089%=      5-min Rain = 0
KCL1 221110Z 03013KT 20/18 A3021 RMK A01 T01990180  RH  089%=      5-min Rain = 0
KCL1 221111Z 03011KT 20/18 A3021 RMK A01 T01980180  RH  089%=      5-min Rain = 0
KCL1 221112Z 03014KT 20/18 A3021 RMK A01 T01980179  RH  089%=      5-min Rain = 0
KCL1 221113Z 03012KT 20/18 A3021 RMK A01 T01980179  RH  089%=      5-min Rain = 0
KCL1 221114Z 02012KT 20/18 A3021 RMK A01 T01980179  RH  089%=      5-min Rain = 0
KCL1 221115Z 03011KT 20/18 A3021 RMK A01 T01980179  RH  089%=      5-min Rain = 0
KCL1 221116Z 02012KT 20/18 A3021 RMK A01 T01980179  RH  089%=      5-min Rain = 0
KCL1 221117Z 03012KT 20/18 A3021 RMK A01 T01980179  RH  089%=      5-min Rain = 0
KCL1 221118Z 02012KT 20/18 A3022 RMK A01 T01980179  RH  089%=      5-min Rain = 0
KCL1 221119Z 02014KT 20/18 A3022 RMK A01 T01970178  RH  089%=      5-min Rain = 0
KCL1 221120Z 03012KT 20/18 A3022 RMK A01 T01970178  RH  089%=      5-min Rain = 0
KCL1 221121Z 03015KT 20/18 A3022 RMK A01 T01970178  RH  089%=      5-min Rain = 0
KCL1 221122Z 03013KT 20/18 A3022 RMK A01 T01980178  RH  089%=      5-min Rain = 0
KCL1 221123Z 03012G17KT 20/18 A3022 RMK A01 T01980178  RH  088%=      5-min Rain = 0
KCL1 221124Z 03013KT 20/18 A3022 RMK A01 T01970178  RH  088%=      5-min Rain = 0
KCL1 221125Z 02011KT 20/18 A3022 RMK A01 T01980178  RH  089%=      5-min Rain = 0
KCL1 221126Z 02012KT 20/18 A3022 RMK A01 T01970178  RH  089%=      5-min Rain = 0
KCL1 221127Z 02012KT 20/18 A3022 RMK A01 T01970178  RH  089%=      5-min Rain = 0
KCL1 221128Z 02013KT 20/18 A3022 RMK A01 T01970179  RH  089%=      5-min Rain = 0
KCL1 221129Z 02015G20KT 20/18 A3022 RMK A01 T01970180  RH  090%=      5-min Rain = 0
KCL1 221130Z 01016KT 20/18 A3022 RMK A01 T01970181  RH  091%=      5-min Rain = 0
KCL1 221131Z 02014G20KT 20/18 A3022 RMK A01 T01960181  RH  091%=      5-min Rain = 0
KCL1 221132Z 02014KT 20/18 A3022 RMK A01 T01960181  RH  091%=      5-min Rain = 0
KCL1 221133Z 02015G20KT 20/18 A3022 RMK A01 T01960182  RH  092%=      5-min Rain = 0
KCL1 221134Z 02012KT 20/18 A3022 RMK A01 T01960182  RH  092%=      5-min Rain = 0
KCL1 221135Z 02015KT 20/18 A3022 RMK A01 T01960182  RH  092%=      5-min Rain = 0
KCL1 221136Z 02016KT 20/18 A3023 RMK A01 T01960182  RH  092%=      5-min Rain = 0
KCL1 221137Z 02015G21KT 20/18 A3023 RMK A01 T01960181  RH  092%=      5-min Rain = 0
KCL1 221138Z 02015KT 20/18 A3023 RMK A01 T01960182  RH  091%=      5-min Rain = 0
KCL1 221139Z 02014KT 20/18 A3023 RMK A01 T01950181  RH  091%=      5-min Rain = 0
KCL1 221140Z 02014KT 20/18 A3023 RMK A01 T01950181  RH  092%=      5-min Rain = 0
KCL1 221141Z 01014KT 20/18 A3023 RMK A01 T01950181  RH  092%=      5-min Rain = 0
KCL1 221142Z 01015KT 20/18 A3023 RMK A01 T01950181  RH  092%=      5-min Rain = 0
KCL1 221143Z 01015KT 20/18 A3023 RMK A01 T01950181  RH  092%=      5-min Rain = 0
KCL1 221144Z 01015KT 20/18 A3023 RMK A01 T01950182  RH  092%=      5-min Rain = 0
KCL1 221145Z 02016G22KT 20/18 A3023 RMK A01 T01950182  RH  092%=      5-min Rain = 0
KCL1 221146Z 01018G23KT 20/18 A3023 RMK A01 T01950182  RH  092%=      5-min Rain = 0
KCL1 221147Z 01013G18KT 19/18 A3023 RMK A01 T01940182  RH  093%=      5-min Rain = 0
KCL1 221148Z 02016G21KT 19/18 A3023 RMK A01 T01940182  RH  093%=      5-min Rain = 0
KCL1 221149Z 02013KT 19/18 A3023 RMK A01 T01940182  RH  093%=      5-min Rain = 0
KCL1 221150Z 01016KT 19/18 A3023 RMK A01 T01940183  RH  093%=      5-min Rain = 0
KCL1 221151Z 01014KT 19/18 A3023 RMK A01 T01940183  RH  093%=      5-min Rain = 0
KCL1 221152Z 02013G18KT 19/18 A3024 RMK A01 T01940183  RH  094%=      5-min Rain = 0
KCL1 221153Z 02012G18KT 19/18 A3024 RMK A01 T01940183  RH  094%=      5-min Rain = 0
KCL1 221154Z 02010KT 19/18 A3024 RMK A01 T01930183  RH  094%=      5-min Rain = 0
KCL1 221155Z 02013KT 19/18 A3024 RMK A01 T01930184  RH  094%=      5-min Rain = 0
KCL1 221156Z 02012KT 19/18 A3024 RMK A01 T01930184  RH  094%=      5-min Rain = 0
KCL1 221157Z 02013KT 19/18 A3024 RMK A01 T01930184  RH  094%=      5-min Rain = 0
KCL1 221158Z 02013KT 19/18 A3024 RMK A01 T01930184  RH  094%=      5-min Rain = 0
KCL1 221159Z 02014KT 19/18 A3023 RMK A01 T01930184  RH  094%=      5-min Rain = 0
KCL1 221200Z 02013KT 19/18 A3023 RMK A01 T01930184  RH  094%=      5-min Rain = 0
KCL1 221201Z 02014KT 19/18 A3023 RMK A01 T01930184  RH  094%=      5-min Rain = 0
KCL1 221202Z 02014KT 19/18 A3023 RMK A01 T01930184  RH  094%=      5-min Rain = 0
KCL1 221203Z 02011KT 19/18 A3023 RMK A01 T01930183  RH  094%=      5-min Rain = 0
KCL1 221204Z 01012KT 19/18 A3024 RMK A01 T01930183  RH  094%=      5-min Rain = 0
KCL1 221205Z 02014KT 19/18 A3024 RMK A01 T01930183  RH  094%=      5-min Rain = 0
KCL1 221206Z 02016KT 19/18 A3024 RMK A01 T01940182  RH  093%=      5-min Rain = 0
KCL1 221207Z 01013G19KT 19/18 A3024 RMK A01 T01940182  RH  093%=      5-min Rain = 0
KCL1 221208Z 01010G15KT 19/18 A3024 RMK A01 T01940182  RH  093%=      5-min Rain = 0
KCL1 221209Z 01015KT 19/18 A3024 RMK A01 T01940181  RH  092%=      5-min Rain = 0
KCL1 221210Z 01016KT 20/18 A3024 RMK A01 T01950181  RH  092%=      5-min Rain = 0
KCL1 221211Z 01017KT 20/18 A3024 RMK A01 T01950180  RH  091%=      5-min Rain = 0
KCL1 221212Z 01014KT 20/18 A3024 RMK A01 T01950179  RH  091%=      5-min Rain = 0
KCL1 221213Z 02013KT 20/18 A3024 RMK A01 T01950179  RH  091%=      5-min Rain = 0
KCL1 221214Z 01012KT 20/18 A3024 RMK A01 T01950179  RH  090%=      5-min Rain = 0
KCL1 221215Z 01015KT 20/18 A3024 RMK A01 T01960179  RH  090%=      5-min Rain = 0
KCL1 221216Z 02017KT 20/18 A3024 RMK A01 T01960179  RH  090%=      5-min Rain = 0
KCL1 221217Z 01017KT 20/18 A3024 RMK A01 T01960179  RH  090%=      5-min Rain = 0
KCL1 221218Z 01014KT 20/18 A3024 RMK A01 T01960179  RH  090%=      5-min Rain = 0
KCL1 221219Z 01015KT 20/18 A3024 RMK A01 T01960179  RH  090%=      5-min Rain = 0
KCL1 221220Z 01019KT 20/18 A3024 RMK A01 T01960179  RH  090%=      5-min Rain = 0
KCL1 221221Z 01016KT 20/18 A3024 RMK A01 T01960179  RH  090%=      5-min Rain = 0
KCL1 221222Z 01015KT 20/18 A3024 RMK A01 T01960179  RH  090%=      5-min Rain = 0
KCL1 221223Z 01015G20KT 20/18 A3024 RMK A01 T01960179  RH  090%=      5-min Rain = 0
KCL1 221224Z 01018KT 20/18 A3024 RMK A01 T01960178  RH  090%=      5-min Rain = 0
KCL1 221225Z 01016KT 20/18 A3024 RMK A01 T01960178  RH  089%=      5-min Rain = 0
KCL1 221226Z 01014G20KT 20/18 A3024 RMK A01 T01960178  RH  089%=      5-min Rain = 0
KCL1 221227Z 01012G18KT 20/18 A3024 RMK A01 T01970177  RH  089%=      5-min Rain = 0
KCL1 221228Z 01017KT 20/18 A3024 RMK A01 T01970177  RH  088%=      5-min Rain = 0
KCL1 221229Z 02016KT 20/18 A3024 RMK A01 T01970177  RH  088%=      5-min Rain = 0
KCL1 221230Z 01013G19KT 20/18 A3024 RMK A01 T01970176  RH  088%=      5-min Rain = 0
KCL1 221231Z 01014KT 20/18 A3024 RMK A01 T01980177  RH  088%=      5-min Rain = 0
KCL1 221232Z 01013G19KT 20/18 A3024 RMK A01 T01970176  RH  088%=      5-min Rain = 0
KCL1 221233Z 02015G22KT 20/18 A3025 RMK A01 T01970176  RH  087%=      5-min Rain = 0
KCL1 221234Z 01014G19KT 20/18 A3025 RMK A01 T01980176  RH  087%=      5-min Rain = 0
KCL1 221235Z 01017KT 20/18 A3025 RMK A01 T01980175  RH  087%=      5-min Rain = 0
KCL1 221236Z 02015G20KT 20/18 A3025 RMK A01 T01980176  RH  087%=      5-min Rain = 0
KCL1 221237Z 02016KT 20/18 A3025 RMK A01 T01980176  RH  087%=      5-min Rain = 0
KCL1 221238Z 01013G18KT 20/18 A3025 RMK A01 T01980176  RH  087%=      5-min Rain = 0
KCL1 221239Z 01013G18KT 20/18 A3025 RMK A01 T01990175  RH  086%=      5-min Rain = 0
KCL1 221240Z 01018KT 20/18 A3025 RMK A01 T01990175  RH  086%=      5-min Rain = 0
KCL1 221241Z 01016G21KT 20/18 A3025 RMK A01 T01990175  RH  086%=      5-min Rain = 0
KCL1 221242Z 01016KT 20/18 A3025 RMK A01 T01990175  RH  086%=      5-min Rain = 0
KCL1 221243Z 01014G21KT 20/18 A3025 RMK A01 T01990175  RH  086%=      5-min Rain = 0
KCL1 221244Z 01016KT 20/18 A3025 RMK A01 T01990175  RH  086%=      5-min Rain = 0
KCL1 221245Z 01014G20KT 20/18 A3025 RMK A01 T01990175  RH  086%=      5-min Rain = 0
KCL1 221246Z 02016G21KT 20/18 A3025 RMK A01 T01990175  RH  086%=      5-min Rain = 0
KCL1 221247Z 01016KT 20/18 A3025 RMK A01 T01990175  RH  086%=      5-min Rain = 0
KCL1 221248Z 02015KT 20/18 A3025 RMK A01 T01990175  RH  086%=      5-min Rain = 0
KCL1 221249Z 01017KT 20/18 A3025 RMK A01 T01990175  RH  086%=      5-min Rain = 0
KCL1 221250Z 02017G22KT 20/17 A3025 RMK A01 T01980174  RH  086%=      5-min Rain = 0
KCL1 221251Z 01014KT 20/17 A3026 RMK A01 T01980174  RH  086%=      5-min Rain = 0
KCL1 221252Z 01015G20KT 20/17 A3026 RMK A01 T01980174  RH  086%=      5-min Rain = 0
KCL1 221253Z 01011KT 20/17 A3025 RMK A01 T01980173  RH  085%=      5-min Rain = 0
KCL1 221254Z 02012KT 20/17 A3025 RMK A01 T01990173  RH  085%=      5-min Rain = 0
KCL1 221255Z 02016KT 20/17 A3026 RMK A01 T01990172  RH  085%=      5-min Rain = 0
KCL1 221256Z 02015KT 20/17 A3026 RMK A01 T01990172  RH  085%=      5-min Rain = 0
KCL1 221257Z 01014KT 20/17 A3026 RMK A01 T01980172  RH  085%=      5-min Rain = 0
KCL1 221258Z 01013G18KT 20/17 A3026 RMK A01 T01980172  RH  085%=      5-min Rain = 0
KCL1 221259Z 01017KT 20/17 A3026 RMK A01 T01980171  RH  085%=      5-min Rain = 0
KCL1 221300Z 02015KT 20/17 A3026 RMK A01 T01970171  RH  085%=      5-min Rain = 0
KCL1 221301Z 02014G19KT 20/17 A3026 RMK A01 T01970171  RH  085%=      5-min Rain = 0
KCL1 221302Z 02014G19KT 20/17 A3026 RMK A01 T01970171  RH  085%=      5-min Rain = 0
KCL1 221303Z 01014KT 20/17 A3026 RMK A01 T01970170  RH  084%=      5-min Rain = 0
KCL1 221304Z 02016KT 20/17 A3026 RMK A01 T01970170  RH  084%=      5-min Rain = 0
KCL1 221305Z 02014G19KT 20/17 A3026 RMK A01 T01970169  RH  084%=      5-min Rain = 0
KCL1 221306Z 02013KT 20/17 A3026 RMK A01 T01970169  RH  084%=      5-min Rain = 0
KCL1 221307Z 02015KT 20/17 A3027 RMK A01 T01970169  RH  084%=      5-min Rain = 0
KCL1 221308Z 02016KT 20/17 A3027 RMK A01 T01980169  RH  084%=      5-min Rain = 0
KCL1 221309Z 02017G22KT 20/17 A3027 RMK A01 T01980169  RH  083%=      5-min Rain = 0
KCL1 221310Z 02015G20KT 20/17 A3027 RMK A01 T01980169  RH  083%=      5-min Rain = 0
KCL1 221311Z 02015KT 20/17 A3027 RMK A01 T01980169  RH  083%=      5-min Rain = 0
KCL1 221312Z 02013G18KT 20/17 A3027 RMK A01 T01980169  RH  083%=      5-min Rain = 0
KCL1 221313Z 02018KT 20/17 A3027 RMK A01 T01980169  RH  083%=      5-min Rain = 0
KCL1 221314Z 03016KT 20/17 A3027 RMK A01 T01980168  RH  083%=      5-min Rain = 0
KCL1 221315Z 02014KT 20/17 A3027 RMK A01 T01970168  RH  083%=      5-min Rain = 0
KCL1 221316Z 02012KT 20/17 A3027 RMK A01 T01980168  RH  083%=      5-min Rain = 0
KCL1 221317Z 02014KT 20/17 A3027 RMK A01 T01980167  RH  083%=      5-min Rain = 0
KCL1 221318Z 02015KT 20/17 A3027 RMK A01 T01970167  RH  083%=      5-min Rain = 0
KCL1 221319Z 01015KT 20/17 A3027 RMK A01 T01970167  RH  083%=      5-min Rain = 0
KCL1 221320Z 02015G20KT 20/17 A3027 RMK A01 T01980167  RH  083%=      5-min Rain = 0
KCL1 221321Z 02015KT 20/17 A3027 RMK A01 T01970167  RH  082%=      5-min Rain = 0
KCL1 221322Z 02012G17KT 20/17 A3027 RMK A01 T01980167  RH  082%=      5-min Rain = 0
KCL1 221323Z 02015KT 20/17 A3027 RMK A01 T01980167  RH  082%=      5-min Rain = 0
KCL1 221324Z 02012G17KT 20/17 A3027 RMK A01 T01980167  RH  082%=      5-min Rain = 0
KCL1 221325Z 02013KT 20/17 A3027 RMK A01 T01980167  RH  082%=      5-min Rain = 0
KCL1 221326Z 02014KT 20/17 A3027 RMK A01 T01980167  RH  082%=      5-min Rain = 0
KCL1 221327Z 02013KT 20/17 A3027 RMK A01 T01980167  RH  082%=      5-min Rain = 0
KCL1 221328Z 01009KT 20/17 A3027 RMK A01 T01980167  RH  082%=      5-min Rain = 0
KCL1 221329Z 02013KT 20/17 A3027 RMK A01 T01980167  RH  082%=      5-min Rain = 0
KCL1 221330Z 03011KT 20/17 A3027 RMK A01 T01980166  RH  082%=      5-min Rain = 0
KCL1 221331Z 02013KT 20/17 A3027 RMK A01 T01980166  RH  082%=      5-min Rain = 0
KCL1 221332Z 02013KT 20/17 A3027 RMK A01 T01980166  RH  082%=      5-min Rain = 0
KCL1 221333Z 03014KT 20/17 A3027 RMK A01 T01980166  RH  081%=      5-min Rain = 0
KCL1 221334Z 03015KT 20/17 A3027 RMK A01 T01980165  RH  081%=      5-min Rain = 0
KCL1 221335Z 02011KT 20/17 A3027 RMK A01 T01980165  RH  081%=      5-min Rain = 0
KCL1 221336Z 02013KT 20/17 A3027 RMK A01 T01980165  RH  081%=      5-min Rain = 0
KCL1 221337Z 02013KT 20/17 A3027 RMK A01 T01990165  RH  081%=      5-min Rain = 0
KCL1 221338Z 03012KT 20/17 A3027 RMK A01 T01990165  RH  081%=      5-min Rain = 0
KCL1 221339Z 02009KT 20/17 A3028 RMK A01 T01990165  RH  081%=      5-min Rain = 0
KCL1 221340Z 02013KT 20/17 A3028 RMK A01 T02000166  RH  081%=      5-min Rain = 0
KCL1 221341Z 03013KT 20/16 A3028 RMK A01 T02000164  RH  080%=      5-min Rain = 0
KCL1 221342Z 02012KT 20/17 A3028 RMK A01 T02010165  RH  080%=      5-min Rain = 0
KCL1 221343Z 02011KT 20/17 A3028 RMK A01 T02010165  RH  080%=      5-min Rain = 0
KCL1 221344Z 03013G18KT 20/17 A3028 RMK A01 T02020165  RH  080%=      5-min Rain = 0
KCL1 221345Z 02012KT 20/17 A3028 RMK A01 T02020165  RH  079%=      5-min Rain = 0
KCL1 221346Z 02014KT 20/16 A3028 RMK A01 T02020164  RH  079%=      5-min Rain = 0
KCL1 221347Z 02012KT 20/16 A3028 RMK A01 T02020164  RH  079%=      5-min Rain = 0
KCL1 221348Z 02012KT 20/16 A3028 RMK A01 T02030164  RH  078%=      5-min Rain = 0
KCL1 221349Z 02013KT 20/16 A3028 RMK A01 T02020164  RH  078%=      5-min Rain = 0
KCL1 221350Z 02013G18KT 20/16 A3028 RMK A01 T02030163  RH  078%=      5-min Rain = 0
KCL1 221351Z 02014KT 20/16 A3029 RMK A01 T02030163  RH  078%=      5-min Rain = 0
KCL1 221352Z 02012KT 20/16 A3029 RMK A01 T02040163  RH  078%=      5-min Rain = 0
KCL1 221353Z 01012KT 20/16 A3029 RMK A01 T02040164  RH  078%=      5-min Rain = 0
KCL1 221354Z 01015G20KT 21/16 A3029 RMK A01 T02050164  RH  077%=      5-min Rain = 0
KCL1 221355Z 01015KT 21/16 A3029 RMK A01 T02050163  RH  077%=      5-min Rain = 0
KCL1 221356Z 01011KT 21/16 A3029 RMK A01 T02050163  RH  077%=      5-min Rain = 0
KCL1 221357Z 01012KT 21/16 A3029 RMK A01 T02060164  RH  077%=      5-min Rain = 0
KCL1 221358Z 01013KT 21/16 A3029 RMK A01 T02070164  RH  076%=      5-min Rain = 0
KCL1 221359Z 01013KT 21/16 A3029 RMK A01 T02070163  RH  076%=      5-min Rain = 0
KCL1 221400Z 00013G18KT 21/16 A3029 RMK A01 T02070164  RH  076%=      5-min Rain = 0
KCL1 221401Z 00013KT 21/16 A3029 RMK A01 T02070164  RH  076%=      5-min Rain = 0
KCL1 221402Z 01014G20KT 21/16 A3029 RMK A01 T02070164  RH  076%=      5-min Rain = 0
KCL1 221403Z 01014KT 21/16 A3029 RMK A01 T02070164  RH  076%=      5-min Rain = 0
KCL1 221404Z 01012KT 21/16 A3029 RMK A01 T02070164  RH  076%=      5-min Rain = 0
KCL1 221405Z 00013G18KT 21/16 A3029 RMK A01 T02070164  RH  076%=      5-min Rain = 0
KCL1 221406Z 01014KT 21/16 A3029 RMK A01 T02080164  RH  076%=      5-min Rain = 0
KCL1 221407Z 00012KT 21/16 A3029 RMK A01 T02080163  RH  075%=      5-min Rain = 0
KCL1 221408Z 36012KT 21/16 A3029 RMK A01 T02090163  RH  075%=      5-min Rain = 0
KCL1 221409Z 01013G19KT 21/16 A3029 RMK A01 T02090163  RH  075%=      5-min Rain = 0
KCL1 221410Z 01015KT 21/16 A3029 RMK A01 T02090163  RH  075%=      5-min Rain = 0
KCL1 221411Z 01011KT 21/16 A3029 RMK A01 T02090162  RH  075%=      5-min Rain = 0
KCL1 221412Z 02016G22KT 21/16 A3029 RMK A01 T02090161  RH  074%=      5-min Rain = 0
KCL1 221413Z 01019KT 21/16 A3029 RMK A01 T02080160  RH  074%=      5-min Rain = 0
KCL1 221414Z 01018KT 21/16 A3029 RMK A01 T02080159  RH  074%=      5-min Rain = 0
KCL1 221415Z 01013G20KT 21/16 A3029 RMK A01 T02070160  RH  074%=      5-min Rain = 0
KCL1 221416Z 02018KT 21/16 A3029 RMK A01 T02070160  RH  074%=      5-min Rain = 0
KCL1 221417Z 02014KT 21/16 A3029 RMK A01 T02080161  RH  074%=      5-min Rain = 0
KCL1 221418Z 02016KT 21/16 A3029 RMK A01 T02080161  RH  074%=      5-min Rain = 0
KCL1 221419Z 02015KT 21/16 A3029 RMK A01 T02080161  RH  075%=      5-min Rain = 0
KCL1 221420Z 02015KT 21/16 A3029 RMK A01 T02080161  RH  074%=      5-min Rain = 0
KCL1 221421Z 01015KT 21/16 A3029 RMK A01 T02090161  RH  074%=      5-min Rain = 0
KCL1 221422Z 02016KT 21/16 A3029 RMK A01 T02090161  RH  074%=      5-min Rain = 0
KCL1 221423Z 02015KT 21/16 A3029 RMK A01 T02090161  RH  074%=      5-min Rain = 0
KCL1 221424Z 02014G19KT 21/16 A3029 RMK A01 T02090162  RH  075%=      5-min Rain = 0
KCL1 221425Z 02015KT 21/16 A3029 RMK A01 T02090163  RH  075%=      5-min Rain = 0
KCL1 221426Z 01013KT 21/16 A3029 RMK A01 T02110163  RH  074%=      5-min Rain = 0
KCL1 221427Z 03011G18KT 21/16 A3029 RMK A01 T02130163  RH  073%=      5-min Rain = 0
KCL1 221428Z 02014KT 22/16 A3029 RMK A01 T02160162  RH  072%=      5-min Rain = 0
KCL1 221429Z 02017KT 22/16 A3029 RMK A01 T02170160  RH  070%=      5-min Rain = 0
KCL1 221430Z 01016KT 22/16 A3029 RMK A01 T02160160  RH  071%=      5-min Rain = 0
KCL1 221431Z 02013KT 22/16 A3029 RMK A01 T02160161  RH  071%=      5-min Rain = 0
KCL1 221432Z 02011KT 22/16 A3029 RMK A01 T02180161  RH  070%=      5-min Rain = 0
KCL1 221433Z 01014KT 22/16 A3029 RMK A01 T02210161  RH  069%=      5-min Rain = 0
KCL1 221434Z 01016G21KT 22/16 A3029 RMK A01 T02210161  RH  069%=      5-min Rain = 0
KCL1 221435Z 01016KT 22/16 A3029 RMK A01 T02200161  RH  069%=      5-min Rain = 0
KCL1 221436Z 01016G21KT 22/16 A3029 RMK A01 T02190161  RH  069%=      5-min Rain = 0
KCL1 221437Z 01018KT 22/16 A3029 RMK A01 T02190160  RH  069%=      5-min Rain = 0
KCL1 221438Z 01019KT 22/16 A3029 RMK A01 T02190160  RH  069%=      5-min Rain = 0
KCL1 221439Z 01017KT 22/16 A3029 RMK A01 T02190161  RH  070%=      5-min Rain = 0
KCL1 221440Z 01017KT 22/16 A3028 RMK A01 T02190161  RH  069%=      5-min Rain = 0
KCL1 221441Z 01016KT 22/16 A3028 RMK A01 T02190161  RH  070%=      5-min Rain = 0
KCL1 221442Z 01016KT 22/16 A3028 RMK A01 T02190161  RH  069%=      5-min Rain = 0
KCL1 221443Z 01015KT 22/16 A3028 RMK A01 T02200161  RH  069%=      5-min Rain = 0
KCL1 221444Z 00016G21KT 22/16 A3028 RMK A01 T02220162  RH  069%=      5-min Rain = 0
KCL1 221445Z 01013G19KT 22/16 A3028 RMK A01 T02230161  RH  068%=      5-min Rain = 0
KCL1 221446Z 01015G20KT 22/16 A3028 RMK A01 T02230162  RH  068%=      5-min Rain = 0
KCL1 221447Z 01017KT 22/16 A3028 RMK A01 T02230162  RH  068%=      5-min Rain = 0
KCL1 221448Z 36016KT 22/16 A3028 RMK A01 T02220161  RH  068%=      5-min Rain = 0
KCL1 221449Z 00016G21KT 22/16 A3028 RMK A01 T02230161  RH  068%=      5-min Rain = 0
KCL1 221450Z 01013G18KT 22/16 A3028 RMK A01 T02230162  RH  068%=      5-min Rain = 0
KCL1 221451Z 02015G21KT 22/16 A3028 RMK A01 T02230162  RH  068%=      5-min Rain = 0
KCL1 221452Z 03016KT 22/16 A3028 RMK A01 T02230159  RH  067%=      5-min Rain = 0
KCL1 221453Z 03020KT 22/16 A3028 RMK A01 T02220160  RH  068%=      5-min Rain = 0
KCL1 221454Z 03017KT 22/16 A3028 RMK A01 T02210159  RH  068%=      5-min Rain = 0
KCL1 221455Z 02017KT 22/16 A3028 RMK A01 T02190160  RH  069%=      5-min Rain = 0
KCL1 221456Z 02015G20KT 22/16 A3028 RMK A01 T02190160  RH  069%=      5-min Rain = 0
KCL1 221457Z 01016KT 22/16 A3028 RMK A01 T02210160  RH  068%=      5-min Rain = 0
KCL1 221458Z 02012G17KT 22/16 A3028 RMK A01 T02210160  RH  068%=      5-min Rain = 0
KCL1 221459Z 04017KT 22/16 A3028 RMK A01 T02230161  RH  068%=      5-min Rain = 0
KCL1 221500Z 03016G21KT 22/16 A3028 RMK A01 T02230161  RH  068%=      5-min Rain = 0
KCL1 221501Z 02016KT 22/16 A3028 RMK A01 T02220161  RH  068%=      5-min Rain = 0
KCL1 221502Z 03016KT 22/16 A3028 RMK A01 T02220161  RH  068%=      5-min Rain = 0
KCL1 221503Z 02016G22KT 22/16 A3028 RMK A01 T02220160  RH  068%=      5-min Rain = 0
KCL1 221504Z 03016KT 22/16 A3028 RMK A01 T02210159  RH  068%=      5-min Rain = 0
KCL1 221505Z 02015G20KT 22/16 A3028 RMK A01 T02210159  RH  068%=      5-min Rain = 0
KCL1 221506Z 03015KT 22/16 A3028 RMK A01 T02210160  RH  068%=      5-min Rain = 0
KCL1 221507Z 03015KT 22/16 A3028 RMK A01 T02210161  RH  068%=      5-min Rain = 0
KCL1 221508Z 03018KT 22/16 A3028 RMK A01 T02220161  RH  068%=      5-min Rain = 0
KCL1 221509Z 02014KT 22/16 A3028 RMK A01 T02220160  RH  068%=      5-min Rain = 0
KCL1 221510Z 02016KT 22/16 A3028 RMK A01 T02230160  RH  067%=      5-min Rain = 0
KCL1 221511Z 02015G20KT 22/16 A3028 RMK A01 T02230161  RH  068%=      5-min Rain = 0
KCL1 221512Z 02014KT 22/16 A3028 RMK A01 T02230161  RH  068%=      5-min Rain = 0
KCL1 221513Z 01013KT 22/16 A3028 RMK A01 T02230161  RH  068%=      5-min Rain = 0
KCL1 221514Z 01015KT 22/16 A3028 RMK A01 T02230162  RH  068%=      5-min Rain = 0
KCL1 221515Z 01016KT 22/16 A3028 RMK A01 T02230160  RH  068%=      5-min Rain = 0
KCL1 221516Z 02013KT 22/16 A3029 RMK A01 T02230160  RH  067%=      5-min Rain = 0
KCL1 221517Z 02015KT 22/16 A3029 RMK A01 T02240160  RH  067%=      5-min Rain = 0
KCL1 221518Z 01017KT 23/16 A3029 RMK A01 T02250160  RH  067%=      5-min Rain = 0
KCL1 221519Z 00015KT 22/16 A3029 RMK A01 T02230160  RH  067%=      5-min Rain = 0
KCL1 221520Z 01013KT 22/16 A3029 RMK A01 T02210159  RH  068%=      5-min Rain = 0
KCL1 221521Z 01014KT 22/16 A3029 RMK A01 T02200160  RH  068%=      5-min Rain = 0
KCL1 221522Z 02014KT 22/16 A3029 RMK A01 T02200160  RH  069%=      5-min Rain = 0
KCL1 221523Z 02012G17KT 22/16 A3029 RMK A01 T02210159  RH  068%=      5-min Rain = 0
KCL1 221524Z 03013G19KT 22/16 A3029 RMK A01 T02220159  RH  067%=      5-min Rain = 0
KCL1 221525Z 02015KT 22/16 A3029 RMK A01 T02230160  RH  067%=      5-min Rain = 0
KCL1 221526Z 02015G20KT 22/16 A3029 RMK A01 T02210160  RH  068%=      5-min Rain = 0
KCL1 221527Z 02017KT 22/16 A3029 RMK A01 T02190160  RH  069%=      5-min Rain = 0
KCL1 221528Z 02015KT 22/16 A3029 RMK A01 T02180161  RH  070%=      5-min Rain = 0
KCL1 221529Z 02014G21KT 22/16 A3029 RMK A01 T02180161  RH  070%=      5-min Rain = 0
KCL1 221530Z 02018KT 22/16 A3029 RMK A01 T02200159  RH  068%=      5-min Rain = 0
KCL1 221531Z 03017KT 22/16 A3029 RMK A01 T02200158  RH  068%=      5-min Rain = 0
KCL1 221532Z 02014KT 22/16 A3029 RMK A01 T02190159  RH  069%=      5-min Rain = 0
KCL1 221533Z 02015G20KT 22/16 A3029 RMK A01 T02190160  RH  069%=      5-min Rain = 0
KCL1 221534Z 02015KT 22/16 A3029 RMK A01 T02200160  RH  069%=      5-min Rain = 0
KCL1 221535Z 02017KT 22/16 A3029 RMK A01 T02200159  RH  068%=      5-min Rain = 0
KCL1 221536Z 02017KT 22/16 A3029 RMK A01 T02200159  RH  068%=      5-min Rain = 0
KCL1 221537Z 02015KT 22/16 A3029 RMK A01 T02200160  RH  068%=      5-min Rain = 0
KCL1 221538Z 01013G18KT 22/16 A3029 RMK A01 T02190160  RH  069%=      5-min Rain = 0
KCL1 221539Z 01016KT 22/16 A3029 RMK A01 T02180160  RH  069%=      5-min Rain = 0
KCL1 221540Z 00016KT 22/16 A3029 RMK A01 T02180161  RH  070%=      5-min Rain = 0
KCL1 221541Z 36015KT 22/16 A3029 RMK A01 T02190161  RH  070%=      5-min Rain = 0
KCL1 221542Z 02014KT 22/16 A3029 RMK A01 T02200161  RH  069%=      5-min Rain = 0
KCL1 221543Z 03013KT 22/16 A3029 RMK A01 T02210161  RH  069%=      5-min Rain = 0
KCL1 221544Z 01015KT 22/16 A3029 RMK A01 T02230162  RH  068%=      5-min Rain = 0
KCL1 221545Z 01013KT 22/16 A3029 RMK A01 T02230161  RH  068%=      5-min Rain = 0
KCL1 221546Z 01013G18KT 22/16 A3029 RMK A01 T02220162  RH  069%=      5-min Rain = 0
KCL1 221547Z 02015G21KT 22/16 A3029 RMK A01 T02220162  RH  069%=      5-min Rain = 0
KCL1 221548Z 02015KT 22/16 A3029 RMK A01 T02220161  RH  069%=      5-min Rain = 0
KCL1 221549Z 01016KT 22/16 A3029 RMK A01 T02230160  RH  068%=      5-min Rain = 0
KCL1 221550Z 02016G21KT 22/16 A3029 RMK A01 T02210159  RH  068%=      5-min Rain = 0
KCL1 221551Z 02017KT 22/16 A303 RMK A01 T02200159  RH  068%=      5-min Rain = 0
KCL1 221552Z 02014KT 22/16 A303 RMK A01 T02190160  RH  069%=      5-min Rain = 0
KCL1 221553Z 01015KT 22/16 A3029 RMK A01 T02190160  RH  069%=      5-min Rain = 0
KCL1 221554Z 03012KT 22/16 A3029 RMK A01 T02190161  RH  069%=      5-min Rain = 0
KCL1 221555Z 02015KT 22/16 A303 RMK A01 T02200161  RH  069%=      5-min Rain = 0
KCL1 221556Z 03013KT 22/16 A303 RMK A01 T02210161  RH  069%=      5-min Rain = 0
KCL1 221557Z 02010KT 22/16 A303 RMK A01 T02220161  RH  068%=      5-min Rain = 0
KCL1 221558Z 01012KT 22/16 A303 RMK A01 T02240162  RH  068%=      5-min Rain = 0
KCL1 221559Z 00015KT 22/16 A303 RMK A01 T02240162  RH  068%=      5-min Rain = 0
KCL1 221600Z 01013KT 22/16 A303 RMK A01 T02230162  RH  068%=      5-min Rain = 0
KCL1 221601Z 01016KT 22/16 A303 RMK A01 T02210161  RH  069%=      5-min Rain = 0
KCL1 221602Z 01016KT 22/16 A303 RMK A01 T02210161  RH  069%=      5-min Rain = 0
KCL1 221603Z 35013KT 22/16 A303 RMK A01 T02210161  RH  069%=      5-min Rain = 0
KCL1 221604Z 00013G18KT 22/16 A303 RMK A01 T02210161  RH  069%=      5-min Rain = 0
KCL1 221605Z 36015G20KT 22/16 A303 RMK A01 T02210160  RH  068%=      5-min Rain = 0
KCL1 221606Z 35013G20KT 22/16 A303 RMK A01 T02200160  RH  069%=      5-min Rain = 0
KCL1 221607Z 35016KT 22/16 A303 RMK A01 T02190160  RH  069%=      5-min Rain = 0
KCL1 221608Z 00013KT 22/16 A303 RMK A01 T02190160  RH  069%=      5-min Rain = 0
KCL1 221609Z 01014KT 22/16 A303 RMK A01 T02200160  RH  069%=      5-min Rain = 0
KCL1 221610Z 00015KT 22/16 A303 RMK A01 T02200160  RH  069%=      5-min Rain = 0
KCL1 221611Z 00016KT 22/16 A303 RMK A01 T02200159  RH  068%=      5-min Rain = 0
KCL1 221612Z 36014KT 22/16 A303 RMK A01 T02190159  RH  069%=      5-min Rain = 0
KCL1 221613Z 01013KT 22/16 A303 RMK A01 T02190160  RH  069%=      5-min Rain = 0
KCL1 221614Z 01013KT 22/16 A303 RMK A01 T02200160  RH  069%=      5-min Rain = 0
KCL1 221615Z 02013KT 22/16 A303 RMK A01 T02210161  RH  069%=      5-min Rain = 0
KCL1 221616Z 01012G17KT 22/16 A303 RMK A01 T02220161  RH  068%=      5-min Rain = 0
KCL1 221617Z 01012KT 22/16 A303 RMK A01 T02230161  RH  068%=      5-min Rain = 0
KCL1 221618Z 02016KT 22/16 A303 RMK A01 T02230161  RH  068%=      5-min Rain = 0
KCL1 221619Z 01012KT 22/16 A303 RMK A01 T02230161  RH  068%=      5-min Rain = 0
KCL1 221620Z 01013G18KT 22/16 A303 RMK A01 T02230162  RH  068%=      5-min Rain = 0
KCL1 221621Z 01011KT 22/16 A3031 RMK A01 T02230161  RH  068%=      5-min Rain = 0
KCL1 221622Z 00011KT 23/16 A3031 RMK A01 T02250162  RH  068%=      5-min Rain = 0
KCL1 221623Z 01015KT 23/16 A303 RMK A01 T02280162  RH  066%=      5-min Rain = 0
KCL1 221624Z 01014G20KT 23/16 A3031 RMK A01 T02280162  RH  066%=      5-min Rain = 0
KCL1 221625Z 01015KT 23/16 A3031 RMK A01 T02280162  RH  066%=      5-min Rain = 0
KCL1 221626Z 01013KT 23/16 A3031 RMK A01 T02260161  RH  067%=      5-min Rain = 0
KCL1 221627Z 01014KT 23/16 A3031 RMK A01 T02250161  RH  067%=      5-min Rain = 0
KCL1 221628Z 01014KT 23/16 A3031 RMK A01 T02250161  RH  067%=      5-min Rain = 0
KCL1 221629Z 01010KT 23/16 A3031 RMK A01 T02250162  RH  067%=      5-min Rain = 0
KCL1 221630Z 01010G15KT 23/16 A3031 RMK A01 T02280164  RH  067%=      5-min Rain = 0
KCL1 221631Z 02012KT 23/16 A3031 RMK A01 T02300164  RH  066%=      5-min Rain = 0
KCL1 221632Z 02014KT 23/16 A303 RMK A01 T02310163  RH  065%=      5-min Rain = 0
KCL1 221633Z 02015KT 23/16 A303 RMK A01 T02290162  RH  066%=      5-min Rain = 0
KCL1 221634Z 03014KT 23/16 A303 RMK A01 T02290163  RH  066%=      5-min Rain = 0
KCL1 221635Z 01012KT 23/16 A303 RMK A01 T02280163  RH  067%=      5-min Rain = 0
KCL1 221636Z 36013KT 23/16 A303 RMK A01 T02290164  RH  066%=      5-min Rain = 0
KCL1 221637Z 01014KT 23/16 A303 RMK A01 T02290163  RH  066%=      5-min Rain = 0
KCL1 221638Z 02011G17KT 23/16 A303 RMK A01 T02290162  RH  066%=      5-min Rain = 0
KCL1 221639Z 03010KT 23/16 A303 RMK A01 T02310162  RH  065%=      5-min Rain = 0
KCL1 221640Z 02012KT 23/16 A303 RMK A01 T02320162  RH  065%=      5-min Rain = 0
KCL1 221641Z 01013KT 23/16 A303 RMK A01 T02320162  RH  065%=      5-min Rain = 0
KCL1 221642Z 36013KT 23/16 A303 RMK A01 T02310162  RH  065%=      5-min Rain = 0
KCL1 221643Z 00012KT 23/16 A303 RMK A01 T02310162  RH  065%=      5-min Rain = 0
KCL1 221644Z 01010KT 23/16 A303 RMK A01 T02300162  RH  065%=      5-min Rain = 0
KCL1 221645Z 03013KT 23/16 A303 RMK A01 T02340163  RH  065%=      5-min Rain = 0
KCL1 221646Z 03010KT 24/16 A303 RMK A01 T02350163  RH  064%=      5-min Rain = 0
KCL1 221647Z 03014KT 24/16 A303 RMK A01 T02360163  RH  063%=      5-min Rain = 0
KCL1 221648Z 01011G17KT 24/16 A303 RMK A01 T02370162  RH  063%=      5-min Rain = 0
KCL1 221649Z 01014KT 24/16 A303 RMK A01 T02360161  RH  063%=      5-min Rain = 0
KCL1 221650Z 03013G18KT 23/16 A303 RMK A01 T02340161  RH  063%=      5-min Rain = 0
KCL1 221651Z 02012KT 24/16 A303 RMK A01 T02350162  RH  064%=      5-min Rain = 0
KCL1 221652Z 03011G18KT 24/16 A3029 RMK A01 T02370162  RH  063%=      5-min Rain = 0
KCL1 221653Z 03014KT 24/16 A3029 RMK A01 T02380161  RH  062%=      5-min Rain = 0
KCL1 221654Z 04013G18KT 24/16 A3029 RMK A01 T02350160  RH  063%=      5-min Rain = 0
KCL1 221655Z 03013KT 23/16 A3029 RMK A01 T02340161  RH  063%=      5-min Rain = 0
KCL1 221656Z 02011KT 23/16 A3029 RMK A01 T02340160  RH  063%=      5-min Rain = 0
KCL1 221657Z 03013KT 24/16 A3029 RMK A01 T02350160  RH  063%=      5-min Rain = 0
KCL1 221658Z 03015KT 24/16 A303 RMK A01 T02370160  RH  062%=      5-min Rain = 0
KCL1 221659Z 03013KT 24/16 A303 RMK A01 T02360160  RH  063%=      5-min Rain = 0
KCL1 221700Z 01014KT 24/16 A3029 RMK A01 T02360160  RH  063%=      5-min Rain = 0
KCL1 221701Z 02015G20KT 24/16 A3029 RMK A01 T02360158  RH  062%=      5-min Rain = 0
KCL1 221702Z 01016KT 24/16 A3029 RMK A01 T02360158  RH  061%=      5-min Rain = 0
KCL1 221703Z 01012G19KT 24/16 A3029 RMK A01 T02350158  RH  062%=      5-min Rain = 0
KCL1 221704Z 01014G19KT 24/16 A3029 RMK A01 T02350157  RH  062%=      5-min Rain = 0
KCL1 221705Z 01015KT 23/16 A3029 RMK A01 T02340157  RH  062%=      5-min Rain = 0
KCL1 221706Z 01014KT 23/16 A3029 RMK A01 T02320158  RH  063%=      5-min Rain = 0
KCL1 221707Z 02013G18KT 23/16 A3029 RMK A01 T02320158  RH  063%=      5-min Rain = 0
KCL1 221708Z 03012KT 23/16 A303 RMK A01 T02330160  RH  063%=      5-min Rain = 0
KCL1 221709Z 04015G20KT 24/16 A303 RMK A01 T02350160  RH  063%=      5-min Rain = 0
KCL1 221710Z 03012KT 24/16 A303 RMK A01 T02370159  RH  062%=      5-min Rain = 0
KCL1 221711Z 03012G17KT 24/16 A303 RMK A01 T02370160  RH  062%=      5-min Rain = 0
KCL1 221712Z 03013KT 24/16 A303 RMK A01 T02360159  RH  062%=      5-min Rain = 0
KCL1 221713Z 02011G16KT 24/16 A303 RMK A01 T02350159  RH  062%=      5-min Rain = 0
KCL1 221714Z 04011G17KT 24/16 A303 RMK A01 T02350160  RH  063%=      5-min Rain = 0
KCL1 221715Z 01014KT 24/16 A303 RMK A01 T02380161  RH  062%=      5-min Rain = 0
KCL1 221716Z 02013KT 24/16 A303 RMK A01 T02380160  RH  062%=      5-min Rain = 0
KCL1 221717Z 01013KT 24/16 A303 RMK A01 T02370160  RH  062%=      5-min Rain = 0
KCL1 221718Z 03014G19KT 24/16 A303 RMK A01 T02380160  RH  062%=      5-min Rain = 0
KCL1 221719Z 02017KT 24/16 A303 RMK A01 T02390158  RH  060%=      5-min Rain = 0
KCL1 221720Z 03012G17KT 24/16 A303 RMK A01 T02380157  RH  061%=      5-min Rain = 0
KCL1 221721Z 04013KT 24/16 A303 RMK A01 T02380159  RH  061%=      5-min Rain = 0
KCL1 221722Z 05014KT 24/16 A303 RMK A01 T02390159  RH  061%=      5-min Rain = 0
KCL1 221723Z 04013KT 24/16 A303 RMK A01 T02380160  RH  061%=      5-min Rain = 0
KCL1 221724Z 03012KT 24/16 A303 RMK A01 T02380160  RH  062%=      5-min Rain = 0
KCL1 221725Z 03014G19KT 24/16 A303 RMK A01 T02380160  RH  062%=      5-min Rain = 0
KCL1 221726Z 03016KT 24/16 A303 RMK A01 T02390159  RH  061%=      5-min Rain = 0
KCL1 221727Z 04015KT 24/16 A303 RMK A01 T02380159  RH  061%=      5-min Rain = 0
KCL1 221728Z 03015KT 24/16 A303 RMK A01 T02380159  RH  061%=      5-min Rain = 0
KCL1 221729Z 03014KT 24/16 A303 RMK A01 T02380159  RH  062%=      5-min Rain = 0
KCL1 221730Z 03014KT 24/16 A303 RMK A01 T02370160  RH  062%=      5-min Rain = 0
KCL1 221731Z 03012KT 24/16 A303 RMK A01 T02380159  RH  061%=      5-min Rain = 0
KCL1 221732Z 03014KT 24/16 A303 RMK A01 T02380159  RH  061%=      5-min Rain = 0
KCL1 221733Z 03014KT 24/16 A3029 RMK A01 T02380159  RH  061%=      5-min Rain = 0
KCL1 221734Z 02014KT 24/16 A3029 RMK A01 T02390158  RH  061%=      5-min Rain = 0
KCL1 221735Z 04016KT 24/16 A303 RMK A01 T02410159  RH  060%=      5-min Rain = 0
KCL1 221736Z 04013KT 24/16 A303 RMK A01 T02420159  RH  060%=      5-min Rain = 0
KCL1 221737Z 04015KT 24/16 A303 RMK A01 T02410159  RH  060%=      5-min Rain = 0
KCL1 221738Z 02013G18KT 24/16 A3029 RMK A01 T02410159  RH  060%=      5-min Rain = 0
KCL1 221739Z 04014KT 24/16 A3029 RMK A01 T02410159  RH  060%=      5-min Rain = 0
KCL1 221740Z 04014G20KT 24/16 A3029 RMK A01 T02420159  RH  060%=      5-min Rain = 0
KCL1 221741Z 03014G19KT 24/16 A3029 RMK A01 T02420159  RH  060%=      5-min Rain = 0
KCL1 221742Z 04012G17KT 24/16 A303 RMK A01 T02420160  RH  060%=      5-min Rain = 0
KCL1 221743Z 05015KT 24/16 A303 RMK A01 T02440160  RH  060%=      5-min Rain = 0
KCL1 221744Z 05015KT 24/16 A303 RMK A01 T02440158  RH  059%=      5-min Rain = 0
KCL1 221745Z 03014KT 24/16 A303 RMK A01 T02430159  RH  059%=      5-min Rain = 0
KCL1 221746Z 04015KT 24/16 A303 RMK A01 T02440159  RH  059%=      5-min Rain = 0
KCL1 221747Z 04011KT 25/16 A303 RMK A01 T02450160  RH  059%=      5-min Rain = 0
KCL1 221748Z 03015KT 25/16 A303 RMK A01 T02450160  RH  059%=      5-min Rain = 0
KCL1 221749Z 03010G15KT 25/16 A303 RMK A01 T02450159  RH  059%=      5-min Rain = 0
KCL1 221750Z 04014KT 25/16 A303 RMK A01 T02460161  RH  059%=      5-min Rain = 0
KCL1 221751Z 03012KT 25/16 A303 RMK A01 T02470161  RH  059%=      5-min Rain = 0
KCL1 221752Z 04011G16KT 25/16 A303 RMK A01 T02460161  RH  059%=      5-min Rain = 0
KCL1 221753Z 02015KT 25/16 A303 RMK A01 T02450160  RH  059%=      5-min Rain = 0
KCL1 221754Z 03014KT 25/16 A303 RMK A01 T02450159  RH  059%=      5-min Rain = 0
KCL1 221755Z 03011G16KT 24/16 A303 RMK A01 T02440159  RH  059%=      5-min Rain = 0
KCL1 221756Z 03013KT 25/16 A303 RMK A01 T02450159  RH  059%=      5-min Rain = 0
KCL1 221757Z 03013KT 24/16 A303 RMK A01 T02440158  RH  059%=      5-min Rain = 0
KCL1 221758Z 04014KT 24/16 A303 RMK A01 T02430159  RH  059%=      5-min Rain = 0
KCL1 221759Z 04012KT 24/16 A303 RMK A01 T02430159  RH  059%=      5-min Rain = 0
KCL1 221800Z 04012KT 24/16 A303 RMK A01 T02440159  RH  059%=      5-min Rain = 0
KCL1 221801Z 03013KT 25/16 A303 RMK A01 T02450159  RH  058%=      5-min Rain = 0
KCL1 221802Z 04014KT 25/16 A303 RMK A01 T02450158  RH  058%=      5-min Rain = 0
KCL1 221803Z 05011G16KT 25/16 A303 RMK A01 T02450158  RH  058%=      5-min Rain = 0
KCL1 221804Z 04013KT 25/16 A303 RMK A01 T02460158  RH  058%=      5-min Rain = 0
KCL1 221805Z 04015KT 25/16 A303 RMK A01 T02460158  RH  058%=      5-min Rain = 0
KCL1 221806Z 04014KT 25/16 A303 RMK A01 T02460157  RH  058%=      5-min Rain = 0
KCL1 221807Z 04014G19KT 25/16 A303 RMK A01 T02450157  RH  058%=      5-min Rain = 0
KCL1 221808Z 05014KT 25/16 A303 RMK A01 T02450156  RH  057%=      5-min Rain = 0
KCL1 221809Z 05015KT 25/16 A303 RMK A01 T02460155  RH  057%=      5-min Rain = 0
KCL1 221810Z 04015KT 25/16 A303 RMK A01 T02460155  RH  057%=      5-min Rain = 0
KCL1 221811Z 04014KT 25/16 A303 RMK A01 T02460156  RH  057%=      5-min Rain = 0
KCL1 221812Z 04016KT 25/16 A303 RMK A01 T02460156  RH  057%=      5-min Rain = 0
KCL1 221813Z 04010G15KT 24/16 A303 RMK A01 T02440156  RH  058%=      5-min Rain = 0
KCL1 221814Z 03013KT 24/16 A303 RMK A01 T02440157  RH  058%=      5-min Rain = 0
KCL1 221815Z 04012KT 24/16 A303 RMK A01 T02440156  RH  058%=      5-min Rain = 0
KCL1 221816Z 04016KT 25/16 A303 RMK A01 T02450157  RH  058%=      5-min Rain = 0
KCL1 221817Z 04015KT 25/16 A303 RMK A01 T02460156  RH  057%=      5-min Rain = 0
KCL1 221818Z 06012KT 25/16 A303 RMK A01 T02450156  RH  058%=      5-min Rain = 0
KCL1 221819Z 05012KT 25/16 A303 RMK A01 T02470156  RH  057%=      5-min Rain = 0
KCL1 221820Z 05009KT 25/16 A303 RMK A01 T02480157  RH  057%=      5-min Rain = 0
KCL1 221821Z 05012KT 25/16 A303 RMK A01 T02510158  RH  056%=      5-min Rain = 0
KCL1 221822Z 04012KT 25/16 A303 RMK A01 T02510156  RH  056%=      5-min Rain = 0
KCL1 221823Z 04014KT 25/16 A303 RMK A01 T02500156  RH  056%=      5-min Rain = 0
KCL1 221824Z 04011KT 25/16 A303 RMK A01 T02480157  RH  057%=      5-min Rain = 0
KCL1 221825Z 03010KT 25/16 A303 RMK A01 T02470157  RH  057%=      5-min Rain = 0
KCL1 221826Z 03010KT 25/16 A303 RMK A01 T02470156  RH  057%=      5-min Rain = 0
KCL1 221827Z 04010KT 25/16 A303 RMK A01 T02460157  RH  057%=      5-min Rain = 0
KCL1 221828Z 04012KT 25/16 A303 RMK A01 T02470157  RH  057%=      5-min Rain = 0
KCL1 221829Z 05010KT 25/16 A303 RMK A01 T02480155  RH  056%=      5-min Rain = 0
KCL1 221830Z 05013KT 25/16 A3029 RMK A01 T02480156  RH  056%=      5-min Rain = 0
KCL1 221831Z 03015KT 25/16 A303 RMK A01 T02500157  RH  056%=      5-min Rain = 0
KCL1 221832Z 02011KT 25/16 A3029 RMK A01 T02490156  RH  056%=      5-min Rain = 0
KCL1 221833Z 03012KT 25/16 A3029 RMK A01 T02480157  RH  057%=      5-min Rain = 0
KCL1 221834Z 04012KT 25/16 A3029 RMK A01 T02490157  RH  057%=      5-min Rain = 0
KCL1 221835Z 03009G14KT 25/16 A3029 RMK A01 T02490157  RH  056%=      5-min Rain = 0
KCL1 221836Z 04012KT 25/16 A3029 RMK A01 T02500157  RH  056%=      5-min Rain = 0
KCL1 221837Z 05011G17KT 25/16 A3029 RMK A01 T02500156  RH  056%=      5-min Rain = 0
KCL1 221838Z 03012KT 25/16 A303 RMK A01 T02500156  RH  056%=      5-min Rain = 0
KCL1 221839Z 04011KT 25/16 A303 RMK A01 T02500156  RH  056%=      5-min Rain = 0
KCL1 221840Z 04012KT 25/16 A3029 RMK A01 T02490155  RH  056%=      5-min Rain = 0
KCL1 221841Z 04013KT 25/15 A3029 RMK A01 T02490154  RH  056%=      5-min Rain = 0
KCL1 221842Z 04015KT 25/15 A303 RMK A01 T02500154  RH  055%=      5-min Rain = 0
KCL1 221843Z 04013KT 25/16 A3029 RMK A01 T02500155  RH  055%=      5-min Rain = 0
KCL1 221844Z 05011KT 25/15 A3029 RMK A01 T02500154  RH  055%=      5-min Rain = 0
KCL1 221845Z 03013G19KT 25/15 A3029 RMK A01 T02510154  RH  055%=      5-min Rain = 0
KCL1 221846Z 05013KT 25/15 A3029 RMK A01 T02520152  RH  054%=      5-min Rain = 0
KCL1 221847Z 05014KT 25/15 A3029 RMK A01 T02530152  RH  054%=      5-min Rain = 0
KCL1 221848Z 04015KT 25/15 A3029 RMK A01 T02520153  RH  054%=      5-min Rain = 0
KCL1 221849Z 05011KT 25/15 A3029 RMK A01 T02520154  RH  054%=      5-min Rain = 0
KCL1 221850Z 04011KT 25/15 A3029 RMK A01 T02520154  RH  054%=      5-min Rain = 0
KCL1 221851Z 04012KT 25/15 A3029 RMK A01 T02520154  RH  055%=      5-min Rain = 0
KCL1 221852Z 05016KT 25/15 A3029 RMK A01 T02530154  RH  054%=      5-min Rain = 0
KCL1 221853Z 05016KT 25/15 A3029 RMK A01 T02530154  RH  054%=      5-min Rain = 0
KCL1 221854Z 04012KT 25/16 A3029 RMK A01 T02530155  RH  055%=      5-min Rain = 0
KCL1 221855Z 05010KT 25/16 A3029 RMK A01 T02540155  RH  054%=      5-min Rain = 0
KCL1 221856Z 05012KT 26/15 A3029 RMK A01 T02550154  RH  054%=      5-min Rain = 0
KCL1 221857Z 03012KT 26/15 A3029 RMK A01 T02560154  RH  053%=      5-min Rain = 0
KCL1 221858Z 00009KT 26/15 A3029 RMK A01 T02560154  RH  053%=      5-min Rain = 0
KCL1 221859Z 05011KT 26/16 A3029 RMK A01 T02570155  RH  053%=      5-min Rain = 0
KCL1 221900Z 05009KT 26/15 A3029 RMK A01 T02590154  RH  052%=      5-min Rain = 0
KCL1 221901Z 05012KT 26/16 A3029 RMK A01 T02590155  RH  053%=      5-min Rain = 0
KCL1 221902Z 04010KT 26/16 A3029 RMK A01 T02600157  RH  053%=      5-min Rain = 0
KCL1 221903Z 04014KT 26/16 A3029 RMK A01 T02630158  RH  052%=      5-min Rain = 0
KCL1 221904Z 05011KT 26/16 A3029 RMK A01 T02630157  RH  052%=      5-min Rain = 0
KCL1 221905Z 05010KT 26/16 A3029 RMK A01 T02620157  RH  052%=      5-min Rain = 0
KCL1 221906Z 03011KT 26/16 A3029 RMK A01 T02630157  RH  052%=      5-min Rain = 0
KCL1 221907Z 03009G14KT 26/16 A3029 RMK A01 T02620157  RH  052%=      5-min Rain = 0
KCL1 221908Z 04013KT 26/16 A3029 RMK A01 T02620158  RH  053%=      5-min Rain = 0
KCL1 221909Z 04015KT 26/16 A3029 RMK A01 T02630157  RH  052%=      5-min Rain = 0
KCL1 221910Z 04014KT 26/16 A3029 RMK A01 T02640158  RH  052%=      5-min Rain = 0
KCL1 221911Z 05013KT 27/16 A3029 RMK A01 T02660157  RH  051%=      5-min Rain = 0
KCL1 221912Z 04012KT 27/16 A3029 RMK A01 T02660156  RH  051%=      5-min Rain = 0
KCL1 221913Z 05011KT 26/16 A3029 RMK A01 T02640156  RH  051%=      5-min Rain = 0
KCL1 221914Z 04009KT 26/16 A3029 RMK A01 T02630156  RH  052%=      5-min Rain = 0
KCL1 221915Z 05008G13KT 26/16 A3029 RMK A01 T02630158  RH  052%=      5-min Rain = 0
KCL1 221916Z 04010KT 27/16 A3029 RMK A01 T02670159  RH  052%=      5-min Rain = 0
KCL1 221917Z 04010KT 27/16 A3029 RMK A01 T02690159  RH  051%=      5-min Rain = 0
KCL1 221918Z 05010KT 27/16 A3029 RMK A01 T02700158  RH  050%=      5-min Rain = 0
KCL1 221919Z 04013KT 27/16 A3029 RMK A01 T02680157  RH  051%=      5-min Rain = 0
KCL1 221920Z 03011KT 27/16 A3029 RMK A01 T02660158  RH  051%=      5-min Rain = 0
KCL1 221921Z 04011KT 27/16 A3029 RMK A01 T02680159  RH  051%=      5-min Rain = 0
KCL1 221922Z 05013KT 27/16 A3029 RMK A01 T02690158  RH  050%=      5-min Rain = 0
KCL1 221923Z 04011G16KT 27/16 A3029 RMK A01 T02680155  RH  050%=      5-min Rain = 0
KCL1 221924Z 05008KT 27/16 A3029 RMK A01 T02660155  RH  050%=      5-min Rain = 0
KCL1 221925Z 03008KT 27/16 A3029 RMK A01 T02650157  RH  051%=      5-min Rain = 0
KCL1 221926Z 04012G18KT 27/16 A3029 RMK A01 T02670157  RH  051%=      5-min Rain = 0
KCL1 221927Z 04014KT 27/16 A3029 RMK A01 T02670155  RH  050%=      5-min Rain = 0
KCL1 221928Z 03012KT 27/16 A3029 RMK A01 T02660155  RH  050%=      5-min Rain = 0
KCL1 221929Z 03011KT 27/16 A3028 RMK A01 T02660156  RH  051%=      5-min Rain = 0
KCL1 221930Z 05014KT 27/16 A3029 RMK A01 T02650155  RH  051%=      5-min Rain = 0
KCL1 221931Z 06011KT 26/16 A3029 RMK A01 T02640155  RH  051%=      5-min Rain = 0
KCL1 221932Z 06008KT 27/16 A3028 RMK A01 T02660155  RH  051%=      5-min Rain = 0
KCL1 221933Z 04009KT 27/16 A3028 RMK A01 T02690157  RH  050%=      5-min Rain = 0
KCL1 221934Z 02008KT 27/16 A3028 RMK A01 T02710155  RH  049%=      5-min Rain = 0
KCL1 221935Z 05011KT 27/15 A3028 RMK A01 T02680153  RH  050%=      5-min Rain = 0
KCL1 221936Z 04011KT 26/15 A3028 RMK A01 T02640153  RH  050%=      5-min Rain = 0
KCL1 221937Z 04011KT 26/15 A3028 RMK A01 T02620152  RH  051%=      5-min Rain = 0
KCL1 221938Z 03010KT 26/16 A3028 RMK A01 T02630155  RH  051%=      5-min Rain = 0
KCL1 221939Z 06012KT 27/16 A3028 RMK A01 T02670156  RH  051%=      5-min Rain = 0
KCL1 221940Z 05010G15KT 27/16 A3028 RMK A01 T02670156  RH  050%=      5-min Rain = 0
KCL1 221941Z 04010KT 27/16 A3028 RMK A01 T02680156  RH  050%=      5-min Rain = 0
KCL1 221942Z 03013KT 27/16 A3028 RMK A01 T02670156  RH  050%=      5-min Rain = 0
KCL1 221943Z 04013KT 27/16 A3028 RMK A01 T02660155  RH  051%=      5-min Rain = 0
KCL1 221944Z 04013KT 27/15 A3028 RMK A01 T02660154  RH  050%=      5-min Rain = 0
KCL1 221945Z 05010KT 27/15 A3028 RMK A01 T02660154  RH  050%=      5-min Rain = 0
KCL1 221946Z 04006KT 27/15 A3028 RMK A01 T02660154  RH  050%=      5-min Rain = 0
KCL1 221947Z 03010KT 27/15 A3028 RMK A01 T02660154  RH  050%=      5-min Rain = 0
KCL1 221948Z 03010KT 27/16 A3028 RMK A01 T02650155  RH  051%=      5-min Rain = 0
KCL1 221949Z 06011KT 27/16 A3028 RMK A01 T02670156  RH  051%=      5-min Rain = 0
KCL1 221950Z 06016KT 27/16 A3028 RMK A01 T02690155  RH  050%=      5-min Rain = 0
KCL1 221951Z 06012KT 27/16 A3028 RMK A01 T02690156  RH  050%=      5-min Rain = 0
KCL1 221952Z 06013KT 27/16 A3028 RMK A01 T02700155  RH  050%=      5-min Rain = 0
KCL1 221953Z 06012KT 27/16 A3028 RMK A01 T02690155  RH  050%=      5-min Rain = 0
KCL1 221954Z 05010KT 27/16 A3028 RMK A01 T02680155  RH  050%=      5-min Rain = 0
KCL1 221955Z 04013KT 27/15 A3028 RMK A01 T02680154  RH  050%=      5-min Rain = 0
KCL1 221956Z 03012KT 27/15 A3028 RMK A01 T02690154  RH  049%=      5-min Rain = 0
KCL1 221957Z 03009KT 27/15 A3028 RMK A01 T02700154  RH  049%=      5-min Rain = 0
KCL1 221958Z 04008KT 27/15 A3028 RMK A01 T02710154  RH  049%=      5-min Rain = 0
KCL1 221959Z 05011KT 27/16 A3028 RMK A01 T02720155  RH  049%=      5-min Rain = 0
KCL1 222000Z 07010KT 27/16 A3028 RMK A01 T02720156  RH  049%=      5-min Rain = 0
KCL1 222001Z 08009KT 27/16 A3028 RMK A01 T02710156  RH  049%=      5-min Rain = 0
KCL1 222002Z 04009KT 27/16 A3028 RMK A01 T02720157  RH  049%=      5-min Rain = 0
KCL1 222003Z 01009KT 27/16 A3028 RMK A01 T02740157  RH  049%=      5-min Rain = 0
KCL1 222004Z 04012KT 27/16 A3028 RMK A01 T02740157  RH  049%=      5-min Rain = 0
KCL1 222005Z 04010KT 28/16 A3028 RMK A01 T02750158  RH  049%=      5-min Rain = 0
KCL1 222006Z 06010KT 28/16 A3028 RMK A01 T02770158  RH  048%=      5-min Rain = 0
KCL1 222007Z 05010KT 28/16 A3028 RMK A01 T02770157  RH  048%=      5-min Rain = 0
KCL1 222008Z 05009KT 28/16 A3028 RMK A01 T02760158  RH  049%=      5-min Rain = 0
KCL1 222009Z 04010KT 28/16 A3028 RMK A01 T02800160  RH  048%=      5-min Rain = 0
KCL1 222010Z 05012KT 28/16 A3028 RMK A01 T02840159  RH  047%=      5-min Rain = 0
KCL1 222011Z 05011KT 28/16 A3028 RMK A01 T02830158  RH  047%=      5-min Rain = 0
KCL1 222012Z 03012KT 28/16 A3028 RMK A01 T02810158  RH  047%=      5-min Rain = 0
KCL1 222013Z 03015G20KT 28/16 A3028 RMK A01 T02800157  RH  047%=      5-min Rain = 0
KCL1 222014Z 02009KT 28/16 A3028 RMK A01 T02770155  RH  047%=      5-min Rain = 0
KCL1 222015Z 01009KT 28/16 A3028 RMK A01 T02770157  RH  048%=      5-min Rain = 0
KCL1 222016Z 02013G18KT 28/16 A3028 RMK A01 T02780156  RH  048%=      5-min Rain = 0
KCL1 222017Z 03013KT 28/16 A3028 RMK A01 T02780157  RH  048%=      5-min Rain = 0
KCL1 222018Z 05011KT 28/16 A3028 RMK A01 T02790157  RH  047%=      5-min Rain = 0
KCL1 222019Z 04015KT 28/16 A3028 RMK A01 T02800156  RH  047%=      5-min Rain = 0
KCL1 222020Z 02011KT 28/16 A3028 RMK A01 T02800156  RH  047%=      5-min Rain = 0
KCL1 222021Z 02013KT 28/16 A3028 RMK A01 T02780156  RH  047%=      5-min Rain = 0
KCL1 222022Z 05014KT 28/16 A3028 RMK A01 T02760155  RH  048%=      5-min Rain = 0
KCL1 222023Z 05017KT 28/16 A3028 RMK A01 T02760155  RH  047%=      5-min Rain = 0
KCL1 222024Z 05015KT 28/16 A3028 RMK A01 T02760155  RH  048%=      5-min Rain = 0
KCL1 222025Z 05013KT 28/16 A3028 RMK A01 T02750156  RH  048%=      5-min Rain = 0
KCL1 222026Z 06010KT 28/16 A3028 RMK A01 T02770156  RH  048%=      5-min Rain = 0
KCL1 222027Z 05010KT 28/16 A3028 RMK A01 T02800155  RH  047%=      5-min Rain = 0
KCL1 222028Z 07007KT 28/16 A3028 RMK A01 T02780156  RH  047%=      5-min Rain = 0
KCL1 222029Z 06013KT 28/16 A3028 RMK A01 T02780156  RH  048%=      5-min Rain = 0
KCL1 222030Z 05009G14KT 28/16 A3028 RMK A01 T02800158  RH  047%=      5-min Rain = 0
KCL1 222031Z 04013G18KT 28/16 A3027 RMK A01 T02840159  RH  047%=      5-min Rain = 0
KCL1 222032Z 03009KT 29/16 A3027 RMK A01 T02870161  RH  046%=      5-min Rain = 0
KCL1 222033Z 06012G17KT 29/16 A3027 RMK A01 T02890159  RH  045%=      5-min Rain = 0
KCL1 222034Z 06016G22KT 29/16 A3027 RMK A01 T02880155  RH  044%=      5-min Rain = 0
KCL1 222035Z 06012KT 28/15 A3027 RMK A01 T02840154  RH  045%=      5-min Rain = 0
KCL1 222036Z 05012KT 28/16 A3027 RMK A01 T02830156  RH  046%=      5-min Rain = 0
KCL1 222037Z 04013KT 29/16 A3027 RMK A01 T02870157  RH  045%=      5-min Rain = 0
KCL1 222038Z 04010KT 29/16 A3027 RMK A01 T02860156  RH  045%=      5-min Rain = 0
KCL1 222039Z 04009KT 28/16 A3027 RMK A01 T02840157  RH  046%=      5-min Rain = 0
KCL1 222040Z 05009KT 29/16 A3027 RMK A01 T02850156  RH  046%=      5-min Rain = 0
KCL1 222041Z 04013KT 29/16 A3027 RMK A01 T02850156  RH  046%=      5-min Rain = 0
KCL1 222042Z 07013KT 29/15 A3027 RMK A01 T02850154  RH  045%=      5-min Rain = 0
KCL1 222043Z 05014G19KT 29/15 A3027 RMK A01 T02850154  RH  045%=      5-min Rain = 0
KCL1 222044Z 05013KT 29/15 A3027 RMK A01 T02860154  RH  045%=      5-min Rain = 0
KCL1 222045Z 05013KT 29/15 A3027 RMK A01 T02870153  RH  044%=      5-min Rain = 0
KCL1 222046Z 04011KT 28/15 A3027 RMK A01 T02840153  RH  045%=      5-min Rain = 0
KCL1 222047Z 04011KT 28/15 A3027 RMK A01 T02820153  RH  046%=      5-min Rain = 0
KCL1 222048Z 05011G16KT 28/15 A3027 RMK A01 T02810154  RH  046%=      5-min Rain = 0
KCL1 222049Z 07013KT 29/15 A3027 RMK A01 T02850154  RH  045%=      5-min Rain = 0
KCL1 222050Z 08014KT 29/15 A3027 RMK A01 T02890151  RH  043%=      5-min Rain = 0
KCL1 222051Z 08010KT 29/15 A3027 RMK A01 T02880150  RH  043%=      5-min Rain = 0
KCL1 222052Z 07011KT 29/15 A3027 RMK A01 T02870151  RH  044%=      5-min Rain = 0
KCL1 222053Z 07012KT 29/15 A3027 RMK A01 T02900151  RH  043%=      5-min Rain = 0
KCL1 222054Z 02010KT 29/15 A3027 RMK A01 T02900153  RH  043%=      5-min Rain = 0
KCL1 222055Z 03008KT 29/15 A3026 RMK A01 T02910153  RH  043%=      5-min Rain = 0
KCL1 222056Z 07008KT 29/16 A3027 RMK A01 T02920156  RH  044%=      5-min Rain = 0
KCL1 222057Z 06011KT 30/16 A3026 RMK A01 T02980155  RH  042%=      5-min Rain = 0
KCL1 222058Z 05014KT 30/16 A3027 RMK A01 T02990155  RH  042%=      5-min Rain = 0
KCL1 222059Z 05011KT 30/15 A3027 RMK A01 T02960153  RH  042%=      5-min Rain = 0
KCL1 222100Z 05009KT 29/15 A3027 RMK A01 T02920152  RH  043%=      5-min Rain = 0
KCL1 222101Z 05009KT 29/15 A3026 RMK A01 T02900152  RH  043%=      5-min Rain = 0
KCL1 222102Z 05008KT 29/15 A3026 RMK A01 T02910151  RH  043%=      5-min Rain = 0
KCL1 222103Z 04008KT 29/15 A3026 RMK A01 T02910153  RH  043%=      5-min Rain = 0
KCL1 222104Z 04014KT 29/15 A3027 RMK A01 T02930153  RH  043%=      5-min Rain = 0
KCL1 222105Z 03013KT 29/15 A3027 RMK A01 T02940152  RH  042%=      5-min Rain = 0
KCL1 222106Z 02010KT 29/15 A3026 RMK A01 T02910151  RH  043%=      5-min Rain = 0
KCL1 222107Z 04010KT 29/15 A3026 RMK A01 T02910151  RH  043%=      5-min Rain = 0
KCL1 222108Z 05013KT 29/15 A3027 RMK A01 T02930152  RH  042%=      5-min Rain = 0
KCL1 222109Z 05011KT 30/15 A3027 RMK A01 T02950150  RH  041%=      5-min Rain = 0
KCL1 222110Z 05015KT 29/15 A3027 RMK A01 T02920149  RH  042%=      5-min Rain = 0
KCL1 222111Z 04010KT 29/15 A3027 RMK A01 T02910147  RH  041%=      5-min Rain = 0
KCL1 222112Z 04010KT 29/15 A3026 RMK A01 T02890148  RH  042%=      5-min Rain = 0
KCL1 222113Z 05011KT 29/15 A3027 RMK A01 T02880148  RH  042%=      5-min Rain = 0
KCL1 222114Z 06011KT 29/15 A3026 RMK A01 T02870147  RH  042%=      5-min Rain = 0
KCL1 222115Z 06011KT 29/15 A3026 RMK A01 T02850148  RH  043%=      5-min Rain = 0
KCL1 222116Z 05010KT 28/15 A3026 RMK A01 T02840149  RH  044%=      5-min Rain = 0
KCL1 222117Z 04011KT 28/15 A3026 RMK A01 T02830150  RH  044%=      5-min Rain = 0
KCL1 222118Z 06007KT 28/15 A3026 RMK A01 T02830150  RH  044%=      5-min Rain = 0
KCL1 222119Z 05012G19KT 29/15 A3026 RMK A01 T02870153  RH  044%=      5-min Rain = 0
KCL1 222120Z 05013KT 29/15 A3026 RMK A01 T02910151  RH  043%=      5-min Rain = 0
KCL1 222121Z 05013KT 29/15 A3026 RMK A01 T02910151  RH  043%=      5-min Rain = 0
KCL1 222122Z 05014KT 29/15 A3026 RMK A01 T02910151  RH  043%=      5-min Rain = 0
KCL1 222123Z 05011KT 29/15 A3026 RMK A01 T02920152  RH  042%=      5-min Rain = 0
KCL1 222124Z 05014KT 29/15 A3026 RMK A01 T02930151  RH  042%=      5-min Rain = 0
KCL1 222125Z 03011KT 29/15 A3026 RMK A01 T02910151  RH  043%=      5-min Rain = 0
KCL1 222126Z 02008KT 29/15 A3026 RMK A01 T02880152  RH  043%=      5-min Rain = 0
KCL1 222127Z 03012KT 29/15 A3026 RMK A01 T02860151  RH  044%=      5-min Rain = 0
KCL1 222128Z 04010KT 29/15 A3026 RMK A01 T02880153  RH  044%=      5-min Rain = 0
KCL1 222129Z 04009KT 29/15 A3025 RMK A01 T02920154  RH  043%=      5-min Rain = 0
KCL1 222130Z 07009G17KT 29/15 A3025 RMK A01 T02930154  RH  043%=      5-min Rain = 0
KCL1 222131Z 07012G17KT 29/15 A3025 RMK A01 T02930153  RH  043%=      5-min Rain = 0
KCL1 222132Z 05014KT 29/15 A3025 RMK A01 T02920153  RH  043%=      5-min Rain = 0
KCL1 222133Z 04011KT 29/16 A3025 RMK A01 T02910155  RH  044%=      5-min Rain = 0
KCL1 222134Z 04014KT 29/15 A3025 RMK A01 T02910153  RH  043%=      5-min Rain = 0
KCL1 222135Z 04016KT 29/15 A3025 RMK A01 T02920150  RH  042%=      5-min Rain = 0
KCL1 222136Z 06014KT 29/15 A3026 RMK A01 T02920148  RH  042%=      5-min Rain = 0
KCL1 222137Z 05011KT 29/15 A3025 RMK A01 T02900150  RH  042%=      5-min Rain = 0
KCL1 222138Z 05011G18KT 29/15 A3025 RMK A01 T02900150  RH  043%=      5-min Rain = 0
KCL1 222139Z 04012KT 29/15 A3025 RMK A01 T02900150  RH  043%=      5-min Rain = 0
KCL1 222140Z 02010KT 29/15 A3025 RMK A01 T02890152  RH  043%=      5-min Rain = 0
KCL1 222141Z 03011KT 29/15 A3025 RMK A01 T02920154  RH  043%=      5-min Rain = 0
KCL1 222142Z 02011KT 29/15 A3025 RMK A01 T02940153  RH  042%=      5-min Rain = 0
KCL1 222143Z 02010KT 30/15 A3025 RMK A01 T02950153  RH  042%=      5-min Rain = 0
KCL1 222144Z 01011KT 29/15 A3025 RMK A01 T02920152  RH  043%=      5-min Rain = 0
KCL1 222145Z 02011KT 29/15 A3025 RMK A01 T02920152  RH  043%=      5-min Rain = 0
KCL1 222146Z 02014KT 29/15 A3025 RMK A01 T02920153  RH  043%=      5-min Rain = 0
KCL1 222147Z 03010KT 29/15 A3025 RMK A01 T02910153  RH  043%=      5-min Rain = 0
KCL1 222148Z 05013KT 29/15 A3025 RMK A01 T02910152  RH  043%=      5-min Rain = 0
KCL1 222149Z 06016KT 29/15 A3025 RMK A01 T02930150  RH  042%=      5-min Rain = 0
KCL1 222150Z 06015KT 29/15 A3025 RMK A01 T02920150  RH  042%=      5-min Rain = 0
KCL1 222151Z 07011KT 29/15 A3025 RMK A01 T02900150  RH  042%=      5-min Rain = 0
KCL1 222152Z 06010KT 29/15 A3025 RMK A01 T02900150  RH  042%=      5-min Rain = 0
KCL1 222153Z 05013G19KT 29/15 A3025 RMK A01 T02890151  RH  043%=      5-min Rain = 0
KCL1 222154Z 05013KT 29/15 A3025 RMK A01 T02900151  RH  043%=      5-min Rain = 0
KCL1 222155Z 03013KT 29/15 A3024 RMK A01 T02910151  RH  043%=      5-min Rain = 0
KCL1 222156Z 03013KT 29/15 A3025 RMK A01 T02910151  RH  043%=      5-min Rain = 0
KCL1 222157Z 02012KT 29/15 A3024 RMK A01 T02900150  RH  042%=      5-min Rain = 0
KCL1 222158Z 04011KT 29/15 A3024 RMK A01 T02900150  RH  043%=      5-min Rain = 0
KCL1 222159Z 04011KT 29/15 A3024 RMK A01 T02900148  RH  042%=      5-min Rain = 0
KCL1 222200Z 04013KT 29/15 A3024 RMK A01 T02890147  RH  042%=      5-min Rain = 0
KCL1 222201Z 04013KT 29/15 A3024 RMK A01 T02890149  RH  042%=      5-min Rain = 0
KCL1 222202Z 02011KT 29/15 A3024 RMK A01 T02920150  RH  042%=      5-min Rain = 0
KCL1 222203Z 03010KT 29/15 A3024 RMK A01 T02940150  RH  042%=      5-min Rain = 0
KCL1 222204Z 04011KT 29/15 A3024 RMK A01 T02940148  RH  041%=      5-min Rain = 0
KCL1 222205Z 05008KT 29/15 A3024 RMK A01 T02940146  RH  041%=      5-min Rain = 0
KCL1 222206Z 05009G15KT 29/15 A3024 RMK A01 T02930149  RH  041%=      5-min Rain = 0
KCL1 222207Z 05010KT 30/15 A3024 RMK A01 T02950150  RH  041%=      5-min Rain = 0
KCL1 222208Z 06013G18KT 30/15 A3024 RMK A01 T02950149  RH  041%=      5-min Rain = 0
KCL1 222209Z 05014KT 29/15 A3024 RMK A01 T02930146  RH  041%=      5-min Rain = 0
KCL1 222210Z 06011KT 29/15 A3024 RMK A01 T02890145  RH  042%=      5-min Rain = 0
KCL1 222211Z 03011KT 29/15 A3024 RMK A01 T02860148  RH  043%=      5-min Rain = 0
KCL1 222212Z 04010KT 28/15 A3024 RMK A01 T02830148  RH  044%=      5-min Rain = 0
KCL1 222213Z 05009KT 28/15 A3024 RMK A01 T02790148  RH  045%=      5-min Rain = 0
KCL1 222214Z 06008KT 28/15 A3024 RMK A01 T02800149  RH  045%=      5-min Rain = 0
KCL1 222215Z 06007KT 28/15 A3024 RMK A01 T02840151  RH  044%=      5-min Rain = 0
KCL1 222216Z 04014KT 29/15 A3024 RMK A01 T02910152  RH  043%=      5-min Rain = 0
KCL1 222217Z 05011KT 29/15 A3024 RMK A01 T02900149  RH  042%=      5-min Rain = 0
KCL1 222218Z 05011KT 29/15 A3024 RMK A01 T02870148  RH  043%=      5-min Rain = 0
KCL1 222219Z 05014KT 29/15 A3023 RMK A01 T02870146  RH  042%=      5-min Rain = 0
KCL1 222220Z 05014KT 29/15 A3023 RMK A01 T02870146  RH  042%=      5-min Rain = 0
KCL1 222221Z 05012KT 29/15 A3023 RMK A01 T02870148  RH  043%=      5-min Rain = 0
KCL1 222222Z 04015KT 29/15 A3023 RMK A01 T02860150  RH  043%=      5-min Rain = 0
KCL1 222223Z 03013KT 29/15 A3023 RMK A01 T02880151  RH  043%=      5-min Rain = 0
KCL1 222224Z 02010KT 29/15 A3023 RMK A01 T02880151  RH  043%=      5-min Rain = 0
KCL1 222225Z 03009KT 29/15 A3023 RMK A01 T02890152  RH  043%=      5-min Rain = 0
KCL1 222226Z 04009KT 29/15 A3023 RMK A01 T02900150  RH  043%=      5-min Rain = 0
KCL1 222227Z 02011KT 29/15 A3023 RMK A01 T02900149  RH  042%=      5-min Rain = 0
KCL1 222228Z 04007KT 29/15 A3023 RMK A01 T02900147  RH  042%=      5-min Rain = 0
KCL1 222229Z 04009KT 29/15 A3023 RMK A01 T02900148  RH  042%=      5-min Rain = 0
KCL1 222230Z 05010KT 29/15 A3023 RMK A01 T02900148  RH  042%=      5-min Rain = 0
KCL1 222231Z 07009KT 29/15 A3023 RMK A01 T02920147  RH  041%=      5-min Rain = 0
KCL1 222232Z 06011KT 30/14 A3023 RMK A01 T02950144  RH  040%=      5-min Rain = 0
KCL1 222233Z 06010KT 30/14 A3023 RMK A01 T02960144  RH  040%=      5-min Rain = 0
KCL1 222234Z 02008KT 30/15 A3023 RMK A01 T02970145  RH  040%=      5-min Rain = 0
KCL1 222235Z 03010KT 30/15 A3023 RMK A01 T02950145  RH  040%=      5-min Rain = 0
KCL1 222236Z 03014G20KT 29/14 A3023 RMK A01 T02900144  RH  041%=      5-min Rain = 0
KCL1 222237Z 03011KT 29/15 A3023 RMK A01 T02850145  RH  042%=      5-min Rain = 0
KCL1 222238Z 03009KT 28/15 A3023 RMK A01 T02820145  RH  043%=      5-min Rain = 0
KCL1 222239Z 04008KT 28/15 A3023 RMK A01 T02810145  RH  043%=      5-min Rain = 0
KCL1 222240Z 02007KT 28/15 A3023 RMK A01 T02840148  RH  044%=      5-min Rain = 0
KCL1 222241Z 03007KT 29/15 A3023 RMK A01 T02880149  RH  043%=      5-min Rain = 0
KCL1 222242Z 03011KT 29/15 A3023 RMK A01 T02900151  RH  043%=      5-min Rain = 0
KCL1 222243Z 05011KT 29/15 A3023 RMK A01 T02930152  RH  042%=      5-min Rain = 0
KCL1 222244Z 04009KT 29/15 A3023 RMK A01 T02930150  RH  042%=      5-min Rain = 0
KCL1 222245Z 04009KT 29/15 A3023 RMK A01 T02910151  RH  043%=      5-min Rain = 0
KCL1 222246Z 05013KT 29/15 A3023 RMK A01 T02920150  RH  042%=      5-min Rain = 0
KCL1 222247Z 03012G17KT 30/15 A3023 RMK A01 T02950147  RH  041%=      5-min Rain = 0
KCL1 222248Z 04010KT 30/15 A3023 RMK A01 T02950145  RH  040%=      5-min Rain = 0
KCL1 222249Z 04014KT 29/14 A3023 RMK A01 T02930144  RH  040%=      5-min Rain = 0
KCL1 222250Z 03010KT 29/14 A3023 RMK A01 T02900144  RH  041%=      5-min Rain = 0
KCL1 222251Z 04008KT 29/15 A3023 RMK A01 T02900145  RH  041%=      5-min Rain = 0
KCL1 222252Z 03011KT 29/15 A3023 RMK A01 T02930146  RH  041%=      5-min Rain = 0
KCL1 222253Z 03012KT 29/15 A3023 RMK A01 T02920146  RH  041%=      5-min Rain = 0
KCL1 222254Z 04011KT 29/15 A3023 RMK A01 T02910146  RH  041%=      5-min Rain = 0
KCL1 222255Z 05011KT 29/15 A3023 RMK A01 T02890146  RH  042%=      5-min Rain = 0
KCL1 222256Z 05014KT 29/15 A3023 RMK A01 T02910145  RH  041%=      5-min Rain = 0
KCL1 222257Z 05014KT 29/14 A3023 RMK A01 T02910144  RH  041%=      5-min Rain = 0
KCL1 222258Z 05013KT 29/14 A3023 RMK A01 T02890141  RH  040%=      5-min Rain = 0
KCL1 222259Z 05011KT 29/14 A3023 RMK A01 T02890139  RH  040%=      5-min Rain = 0
KCL1 222300Z 03009G15KT 29/14 A3023 RMK A01 T02860139  RH  041%=      5-min Rain = 0
KCL1 222301Z 03013KT 28/14 A3023 RMK A01 T02830138  RH  041%=      5-min Rain = 0
KCL1 222302Z 03011KT 28/14 A3023 RMK A01 T02810140  RH  042%=      5-min Rain = 0
KCL1 222303Z 03012KT 28/14 A3023 RMK A01 T02800142  RH  043%=      5-min Rain = 0
KCL1 222304Z 04011KT 28/14 A3023 RMK A01 T02790143  RH  043%=      5-min Rain = 0
KCL1 222305Z 03007KT 28/15 A3023 RMK A01 T02790145  RH  044%=      5-min Rain = 0
KCL1 222306Z 03010G15KT 28/15 A3022 RMK A01 T02820148  RH  044%=      5-min Rain = 0
KCL1 222307Z 05013KT 29/15 A3022 RMK A01 T02870149  RH  043%=      5-min Rain = 0
KCL1 222308Z 03013KT 29/15 A3022 RMK A01 T02890148  RH  042%=      5-min Rain = 0
KCL1 222309Z 03012KT 29/15 A3022 RMK A01 T02890147  RH  042%=      5-min Rain = 0
KCL1 222310Z 03012KT 29/15 A3022 RMK A01 T02890146  RH  042%=      5-min Rain = 0
KCL1 222311Z 04011KT 29/15 A3022 RMK A01 T02890145  RH  042%=      5-min Rain = 0
KCL1 222312Z 04010KT 29/15 A3022 RMK A01 T02900145  RH  041%=      5-min Rain = 0
KCL1 222313Z 03011KT 29/15 A3022 RMK A01 T02920146  RH  041%=      5-min Rain = 0
KCL1 222314Z 03009G14KT 29/15 A3022 RMK A01 T02940146  RH  041%=      5-min Rain = 0
KCL1 222315Z 03013G18KT 29/15 A3022 RMK A01 T02940146  RH  041%=      5-min Rain = 0
KCL1 222316Z 05016KT 29/14 A3022 RMK A01 T02940144  RH  040%=      5-min Rain = 0
KCL1 222317Z 06012KT 29/14 A3022 RMK A01 T02900142  RH  040%=      5-min Rain = 0
KCL1 222318Z 04011KT 29/14 A3022 RMK A01 T02890144  RH  041%=      5-min Rain = 0
KCL1 222319Z 03012KT 29/14 A3022 RMK A01 T02900144  RH  041%=      5-min Rain = 0
KCL1 222320Z 03012KT 29/15 A3022 RMK A01 T02910145  RH  041%=      5-min Rain = 0
KCL1 222321Z 05014G19KT 29/15 A3022 RMK A01 T02910145  RH  041%=      5-min Rain = 0
KCL1 222322Z 05013KT 29/15 A3022 RMK A01 T02920145  RH  041%=      5-min Rain = 0
KCL1 222323Z 06013KT 29/15 A3022 RMK A01 T02890145  RH  041%=      5-min Rain = 0
KCL1 222324Z 05011KT 28/14 A3022 RMK A01 T02840144  RH  042%=      5-min Rain = 0
KCL1 222325Z 05009KT 28/14 A3022 RMK A01 T02820144  RH  043%=      5-min Rain = 0
KCL1 222326Z 04009KT 28/15 A3022 RMK A01 T02820146  RH  043%=      5-min Rain = 0
KCL1 222327Z 04009KT 28/15 A3022 RMK A01 T02810145  RH  043%=      5-min Rain = 0
KCL1 222328Z 05012KT 28/14 A3022 RMK A01 T02800144  RH  044%=      5-min Rain = 0
KCL1 222329Z 05012KT 28/14 A3022 RMK A01 T02780144  RH  044%=      5-min Rain = 0
KCL1 222330Z 03014G19KT 28/14 A3022 RMK A01 T02800143  RH  043%=      5-min Rain = 0
KCL1 222331Z 04015KT 28/14 A3022 RMK A01 T02820143  RH  043%=      5-min Rain = 0
KCL1 222332Z 04011KT 28/14 A3022 RMK A01 T02830142  RH  042%=      5-min Rain = 0
KCL1 222333Z 05012KT 28/14 A3022 RMK A01 T02830143  RH  042%=      5-min Rain = 0
KCL1 222334Z 06009KT 28/14 A3022 RMK A01 T02810141  RH  042%=      5-min Rain = 0
KCL1 222335Z 06013KT 28/14 A3022 RMK A01 T02780141  RH  043%=      5-min Rain = 0
KCL1 222336Z 05012KT 28/14 A3022 RMK A01 T02760141  RH  043%=      5-min Rain = 0
KCL1 222337Z 04010KT 28/14 A3022 RMK A01 T02760142  RH  044%=      5-min Rain = 0
KCL1 222338Z 04009KT 28/14 A3022 RMK A01 T02750142  RH  044%=      5-min Rain = 0
KCL1 222339Z 04008KT 28/14 A3022 RMK A01 T02760143  RH  044%=      5-min Rain = 0
KCL1 222340Z 03008KT 28/15 A3022 RMK A01 T02800145  RH  044%=      5-min Rain = 0
KCL1 222341Z 04009KT 28/14 A3022 RMK A01 T02830144  RH  043%=      5-min Rain = 0
KCL1 222342Z 04012G18KT 29/15 A3022 RMK A01 T02850145  RH  042%=      5-min Rain = 0
KCL1 222343Z 04015KT 29/15 A3022 RMK A01 T02870145  RH  042%=      5-min Rain = 0
KCL1 222344Z 05011KT 29/15 A3022 RMK A01 T02880145  RH  042%=      5-min Rain = 0
KCL1 222345Z 05012KT 29/15 A3022 RMK A01 T02900145  RH  041%=      5-min Rain = 0
KCL1 222346Z 04014KT 29/15 A3022 RMK A01 T02900145  RH  041%=      5-min Rain = 0
KCL1 222347Z 05015KT 29/14 A3022 RMK A01 T02890143  RH  041%=      5-min Rain = 0
KCL1 222348Z 05013KT 29/14 A3022 RMK A01 T02860142  RH  041%=      5-min Rain = 0
KCL1 222349Z 05011KT 29/14 A3022 RMK A01 T02860143  RH  041%=      5-min Rain = 0
KCL1 222350Z 06010KT 29/14 A3022 RMK A01 T02880143  RH  041%=      5-min Rain = 0
KCL1 222351Z 04011KT 29/14 A3022 RMK A01 T02870143  RH  041%=      5-min Rain = 0
KCL1 222352Z 04012KT 29/14 A3022 RMK A01 T02880143  RH  041%=      5-min Rain = 0
KCL1 222353Z 06014KT 29/14 A3022 RMK A01 T02880143  RH  041%=      5-min Rain = 0
KCL1 222354Z 06014KT 29/14 A3022 RMK A01 T02870141  RH  041%=      5-min Rain = 0
KCL1 222355Z 05015KT 29/14 A3022 RMK A01 T02850140  RH  041%=      5-min Rain = 0
KCL1 222356Z 05014KT 29/14 A3022 RMK A01 T02850141  RH  041%=      5-min Rain = 0
KCL1 222357Z 04014KT 29/14 A3022 RMK A01 T02860141  RH  041%=      5-min Rain = 0
KCL1 222358Z 04014KT 29/14 A3022 RMK A01 T02860141  RH  041%=      5-min Rain = 0
KCL1 222359Z 05015KT 28/14 A3022 RMK A01 T02840140  RH  041%=      5-min Rain = 0
KCL1 230000Z 05012KT 28/14 A3022 RMK A01 T02800140  RH  042%=      5-min Rain = 0
KCL1 230001Z 05013KT 28/14 A3022 RMK A01 T02770139  RH  043%=      5-min Rain = 0
KCL1 230002Z 04009KT 28/14 A3022 RMK A01 T02760139  RH  043%=      5-min Rain = 0
KCL1 230003Z 03007KT 28/14 A3022 RMK A01 T02760140  RH  043%=      5-min Rain = 0
KCL1 230004Z 03010KT 28/14 A3022 RMK A01 T02770141  RH  043%=      5-min Rain = 0
KCL1 230005Z 04010KT 28/14 A3022 RMK A01 T02800142  RH  043%=      5-min Rain = 0
KCL1 230006Z 04011G16KT 28/14 A3022 RMK A01 T02820142  RH  042%=      5-min Rain = 0
KCL1 230007Z 04012KT 28/14 A3022 RMK A01 T02810140  RH  042%=      5-min Rain = 0
KCL1 230008Z 04010KT 28/14 A3022 RMK A01 T02770139  RH  043%=      5-min Rain = 0
KCL1 230009Z 04011KT 28/14 A3022 RMK A01 T02760139  RH  043%=      5-min Rain = 0
KCL1 230010Z 04010KT 28/14 A3022 RMK A01 T02750139  RH  043%=      5-min Rain = 0
KCL1 230011Z 05008KT 28/14 A3022 RMK A01 T02770140  RH  043%=      5-min Rain = 0
KCL1 230012Z 03009KT 28/14 A3021 RMK A01 T02800140  RH  042%=      5-min Rain = 0
KCL1 230013Z 04009KT 28/14 A3021 RMK A01 T02820141  RH  042%=      5-min Rain = 0
KCL1 230014Z 06007G12KT 28/14 A3021 RMK A01 T02820141  RH  042%=      5-min Rain = 0
KCL1 230015Z 06013KT 28/14 A3022 RMK A01 T02830141  RH  042%=      5-min Rain = 0
KCL1 230016Z 06010KT 28/14 A3021 RMK A01 T02830141  RH  042%=      5-min Rain = 0
KCL1 230017Z 07013KT 28/14 A3022 RMK A01 T02830141  RH  042%=      5-min Rain = 0
KCL1 230018Z 07014G19KT 28/14 A3022 RMK A01 T02840140  RH  041%=      5-min Rain = 0
KCL1 230019Z 06012G17KT 28/14 A3022 RMK A01 T02820139  RH  042%=      5-min Rain = 0
KCL1 230020Z 06012KT 28/14 A3022 RMK A01 T02820140  RH  042%=      5-min Rain = 0
KCL1 230021Z 05013KT 28/14 A3022 RMK A01 T02830140  RH  042%=      5-min Rain = 0
KCL1 230022Z 05012KT 28/14 A3022 RMK A01 T02810139  RH  042%=      5-min Rain = 0
KCL1 230023Z 06011KT 28/14 A3022 RMK A01 T02800139  RH  042%=      5-min Rain = 0
KCL1 230024Z 05010KT 28/14 A3022 RMK A01 T02790139  RH  042%=      5-min Rain = 0
KCL1 230025Z 06011KT 28/14 A3022 RMK A01 T02790141  RH  043%=      5-min Rain = 0
KCL1 230026Z 06012KT 28/14 A3022 RMK A01 T02800140  RH  042%=      5-min Rain = 0
KCL1 230027Z 06012KT 28/14 A3022 RMK A01 T02790140  RH  043%=      5-min Rain = 0
KCL1 230028Z 05013KT 28/14 A3022 RMK A01 T02770140  RH  043%=      5-min Rain = 0
KCL1 230029Z 05012KT 28/14 A3022 RMK A01 T02770140  RH  043%=      5-min Rain = 0
KCL1 230030Z 05011KT 28/14 A3022 RMK A01 T02760140  RH  043%=      5-min Rain = 0
KCL1 230031Z 05011KT 28/14 A3022 RMK A01 T02750140  RH  043%=      5-min Rain = 0
KCL1 230032Z 04011KT 27/14 A3022 RMK A01 T02740140  RH  044%=      5-min Rain = 0
KCL1 230033Z 04011KT 27/14 A3022 RMK A01 T02730140  RH  044%=      5-min Rain = 0
KCL1 230034Z 05010KT 27/14 A3022 RMK A01 T02720140  RH  044%=      5-min Rain = 0
KCL1 230035Z 04010KT 27/14 A3022 RMK A01 T02730139  RH  044%=      5-min Rain = 0
KCL1 230036Z 04012KT 27/14 A3022 RMK A01 T02730140  RH  044%=      5-min Rain = 0
KCL1 230037Z 04010KT 27/14 A3022 RMK A01 T02740140  RH  044%=      5-min Rain = 0
KCL1 230038Z 03006KT 27/14 A3022 RMK A01 T02740141  RH  044%=      5-min Rain = 0
KCL1 230039Z 04011KT 28/14 A3022 RMK A01 T02750141  RH  044%=      5-min Rain = 0
KCL1 230040Z 07012KT 28/14 A3023 RMK A01 T02750140  RH  043%=      5-min Rain = 0
KCL1 230041Z 06008KT 28/14 A3023 RMK A01 T02760140  RH  043%=      5-min Rain = 0
KCL1 230042Z 05009KT 28/14 A3023 RMK A01 T02770141  RH  043%=      5-min Rain = 0
KCL1 230043Z 04010KT 28/14 A3023 RMK A01 T02770140  RH  043%=      5-min Rain = 0
KCL1 230044Z 04011KT 28/14 A3023 RMK A01 T02770140  RH  043%=      5-min Rain = 0
KCL1 230045Z 06011KT 28/14 A3023 RMK A01 T02760139  RH  043%=      5-min Rain = 0
KCL1 230046Z 05012KT 28/14 A3023 RMK A01 T02750140  RH  043%=      5-min Rain = 0
KCL1 230047Z 05010KT 28/14 A3023 RMK A01 T02750139  RH  043%=      5-min Rain = 0
KCL1 230048Z 05008KT 27/14 A3023 RMK A01 T02740139  RH  043%=      5-min Rain = 0
KCL1 230049Z 04011KT 27/14 A3023 RMK A01 T02740139  RH  044%=      5-min Rain = 0
KCL1 230050Z 05012KT 27/14 A3023 RMK A01 T02740140  RH  044%=      5-min Rain = 0
KCL1 230051Z 04010KT 27/14 A3023 RMK A01 T02740141  RH  044%=      5-min Rain = 0
KCL1 230052Z 05008KT 27/14 A3023 RMK A01 T02740142  RH  044%=      5-min Rain = 0
KCL1 230053Z 04008KT 27/14 A3023 RMK A01 T02740142  RH  044%=      5-min Rain = 0
KCL1 230054Z 05009KT 27/14 A3023 RMK A01 T02740142  RH  044%=      5-min Rain = 0
KCL1 230055Z 06010KT 27/14 A3023 RMK A01 T02740142  RH  044%=      5-min Rain = 0
KCL1 230056Z 05012KT 27/14 A3023 RMK A01 T02740142  RH  044%=      5-min Rain = 0
KCL1 230057Z 05010KT 27/14 A3023 RMK A01 T02730141  RH  044%=      5-min Rain = 0
KCL1 230058Z 04012KT 27/14 A3023 RMK A01 T02730141  RH  044%=      5-min Rain = 0
KCL1 230059Z 05009KT 27/14 A3023 RMK A01 T02730140  RH  044%=      5-min Rain = 0
KCL1 230100Z 05011KT 27/14 A3023 RMK A01 T02730140  RH  044%=      5-min Rain = 0
KCL1 230101Z 06010KT 27/14 A3023 RMK A01 T02720139  RH  044%=      5-min Rain = 0
KCL1 230102Z 05010KT 27/14 A3023 RMK A01 T02720139  RH  044%=      5-min Rain = 0
KCL1 230103Z 05011KT 27/14 A3023 RMK A01 T02720139  RH  044%=      5-min Rain = 0
KCL1 230104Z 05009KT 27/14 A3024 RMK A01 T02710138  RH  044%=      5-min Rain = 0
KCL1 230105Z 05010KT 27/14 A3024 RMK A01 T02710138  RH  044%=      5-min Rain = 0
KCL1 230106Z 06010KT 27/14 A3024 RMK A01 T02710139  RH  044%=      5-min Rain = 0
KCL1 230107Z 05011KT 27/14 A3024 RMK A01 T02710139  RH  044%=      5-min Rain = 0
KCL1 230108Z 05010KT 27/14 A3024 RMK A01 T02710139  RH  044%=      5-min Rain = 0
KCL1 230109Z 06010KT 27/14 A3024 RMK A01 T02700139  RH  044%=      5-min Rain = 0
KCL1 230110Z 06008KT 27/14 A3024 RMK A01 T02690138  RH  044%=      5-min Rain = 0
KCL1 230111Z 05010KT 27/14 A3024 RMK A01 T02690139  RH  045%=      5-min Rain = 0
KCL1 230112Z 05009KT 27/14 A3024 RMK A01 T02690139  RH  045%=      5-min Rain = 0
KCL1 230113Z 06008KT 27/14 A3024 RMK A01 T02680138  RH  045%=      5-min Rain = 0
KCL1 230114Z 05008KT 27/14 A3024 RMK A01 T02680138  RH  045%=      5-min Rain = 0
KCL1 230115Z 05008KT 27/14 A3024 RMK A01 T02670138  RH  045%=      5-min Rain = 0
KCL1 230116Z 05009KT 27/14 A3024 RMK A01 T02670139  RH  045%=      5-min Rain = 0
KCL1 230117Z 06011KT 27/14 A3024 RMK A01 T02670139  RH  046%=      5-min Rain = 0
KCL1 230118Z 05009KT 27/14 A3024 RMK A01 T02660140  RH  046%=      5-min Rain = 0
KCL1 230119Z 05010KT 27/14 A3024 RMK A01 T02660140  RH  046%=      5-min Rain = 0
KCL1 230120Z 05008KT 27/14 A3024 RMK A01 T02660140  RH  046%=      5-min Rain = 0
KCL1 230121Z 05010KT 27/14 A3024 RMK A01 T02660140  RH  046%=      5-min Rain = 0
KCL1 230122Z 06010KT 27/14 A3024 RMK A01 T02650139  RH  046%=      5-min Rain = 0
KCL1 230123Z 05010KT 27/14 A3024 RMK A01 T02650139  RH  046%=      5-min Rain = 0
KCL1 230124Z 05007KT 27/14 A3024 RMK A01 T02650139  RH  046%=      5-min Rain = 0
KCL1 230125Z 05007KT 26/14 A3024 RMK A01 T02640138  RH  046%=      5-min Rain = 0
KCL1 230126Z 06007KT 26/14 A3024 RMK A01 T02630138  RH  046%=      5-min Rain = 0
KCL1 230127Z 05008KT 26/14 A3024 RMK A01 T02630138  RH  046%=      5-min Rain = 0
KCL1 230128Z 06008KT 26/14 A3024 RMK A01 T02620137  RH  046%=      5-min Rain = 0
KCL1 230129Z 06010KT 26/14 A3024 RMK A01 T02620137  RH  046%=      5-min Rain = 0
KCL1 230130Z 06009KT 26/14 A3024 RMK A01 T02620136  RH  046%=      5-min Rain = 0
KCL1 230131Z 06009KT 26/14 A3024 RMK A01 T02620137  RH  046%=      5-min Rain = 0
KCL1 230132Z 06009KT 26/14 A3024 RMK A01 T02620136  RH  046%=      5-min Rain = 0
KCL1 230133Z 06007KT 26/14 A3024 RMK A01 T02620137  RH  046%=      5-min Rain = 0
KCL1 230134Z 06008KT 26/14 A3024 RMK A01 T02610137  RH  046%=      5-min Rain = 0
KCL1 230135Z 06008KT 26/14 A3024 RMK A01 T02610137  RH  046%=      5-min Rain = 0
KCL1 230136Z 06009KT 26/14 A3024 RMK A01 T02600137  RH  047%=      5-min Rain = 0
KCL1 230137Z 06007KT 26/14 A3024 RMK A01 T02600137  RH  047%=      5-min Rain = 0
KCL1 230138Z 06008KT 26/14 A3024 RMK A01 T02600138  RH  047%=      5-min Rain = 0
KCL1 230139Z 06008KT 26/14 A3024 RMK A01 T02600138  RH  047%=      5-min Rain = 0
KCL1 230140Z 07009KT 26/14 A3025 RMK A01 T02590138  RH  047%=      5-min Rain = 0
KCL1 230141Z 06008KT 26/14 A3025 RMK A01 T02590139  RH  048%=      5-min Rain = 0
KCL1 230142Z 07008KT 26/14 A3025 RMK A01 T02580139  RH  048%=      5-min Rain = 0
KCL1 230143Z 06009KT 26/14 A3025 RMK A01 T02580140  RH  048%=      5-min Rain = 0
KCL1 230144Z 06008KT 26/14 A3025 RMK A01 T02580140  RH  048%=      5-min Rain = 0
KCL1 230145Z 07008KT 26/14 A3025 RMK A01 T02570140  RH  048%=      5-min Rain = 0
KCL1 230146Z 06008KT 26/14 A3025 RMK A01 T02560140  RH  049%=      5-min Rain = 0
KCL1 230147Z 07008KT 26/14 A3025 RMK A01 T02550141  RH  049%=      5-min Rain = 0
KCL1 230148Z 07008KT 26/14 A3025 RMK A01 T02550141  RH  049%=      5-min Rain = 0
KCL1 230149Z 07008KT 25/14 A3025 RMK A01 T02540141  RH  049%=      5-min Rain = 0
KCL1 230150Z 07009KT 25/14 A3025 RMK A01 T02540140  RH  049%=      5-min Rain = 0
KCL1 230151Z 07008KT 25/14 A3025 RMK A01 T02540141  RH  049%=      5-min Rain = 0
KCL1 230152Z 07008KT 25/14 A3025 RMK A01 T02530140  RH  050%=      5-min Rain = 0
KCL1 230153Z 07008KT 25/14 A3025 RMK A01 T02530140  RH  050%=      5-min Rain = 0
KCL1 230154Z 07009KT 25/14 A3025 RMK A01 T02520140  RH  050%=      5-min Rain = 0
KCL1 230155Z 07009KT 25/14 A3025 RMK A01 T02520140  RH  050%=      5-min Rain = 0
KCL1 230156Z 06008KT 25/14 A3025 RMK A01 T02520140  RH  050%=      5-min Rain = 0
KCL1 230157Z 06009KT 25/14 A3025 RMK A01 T02520140  RH  050%=      5-min Rain = 0
KCL1 230158Z 06008KT 25/14 A3025 RMK A01 T02520140  RH  050%=      5-min Rain = 0
KCL1 230159Z 06008KT 25/14 A3025 RMK A01 T02510140  RH  050%=      5-min Rain = 0
KCL1 230200Z 06008KT 25/14 A3025 RMK A01 T02510140  RH  050%=      5-min Rain = 0
KCL1 230201Z 06008KT 25/14 A3025 RMK A01 T02500140  RH  050%=      5-min Rain = 0
KCL1 230202Z 06009KT 25/14 A3025 RMK A01 T02500140  RH  050%=      5-min Rain = 0
KCL1 230203Z 06008KT 25/14 A3025 RMK A01 T02500140  RH  050%=      5-min Rain = 0
KCL1 230204Z 06008KT 25/14 A3025 RMK A01 T02490139  RH  050%=      5-min Rain = 0
KCL1 230205Z 06008KT 25/14 A3025 RMK A01 T02490139  RH  050%=      5-min Rain = 0
KCL1 230206Z 06007KT 25/14 A3025 RMK A01 T02480139  RH  051%=      5-min Rain = 0
KCL1 230207Z 07008KT 25/14 A3026 RMK A01 T02480139  RH  051%=      5-min Rain = 0
KCL1 230208Z 07008KT 25/14 A3026 RMK A01 T02480139  RH  051%=      5-min Rain = 0
KCL1 230209Z 07008KT 25/14 A3026 RMK A01 T02470139  RH  051%=      5-min Rain = 0
KCL1 230210Z 06008KT 25/14 A3026 RMK A01 T02470138  RH  051%=      5-min Rain = 0
KCL1 230211Z 07008KT 25/14 A3026 RMK A01 T02460138  RH  051%=      5-min Rain = 0
KCL1 230212Z 06008KT 25/14 A3026 RMK A01 T02450138  RH  051%=      5-min Rain = 0
KCL1 230213Z 07008KT 25/14 A3026 RMK A01 T02450138  RH  051%=      5-min Rain = 0
KCL1 230214Z 06008KT 25/14 A3026 RMK A01 T02450138  RH  051%=      5-min Rain = 0
KCL1 230215Z 06007KT 24/14 A3026 RMK A01 T02440138  RH  051%=      5-min Rain = 0
KCL1 230216Z 06008KT 24/14 A3026 RMK A01 T02440137  RH  051%=      5-min Rain = 0
KCL1 230217Z 06008KT 24/14 A3026 RMK A01 T02430137  RH  052%=      5-min Rain = 0
KCL1 230218Z 06008KT 24/14 A3026 RMK A01 T02430138  RH  052%=      5-min Rain = 0
KCL1 230219Z 07008KT 24/14 A3026 RMK A01 T02430137  RH  052%=      5-min Rain = 0
KCL1 230220Z 07007KT 24/14 A3026 RMK A01 T02430137  RH  052%=      5-min Rain = 0
KCL1 230221Z 06008KT 24/14 A3026 RMK A01 T02420137  RH  052%=      5-min Rain = 0
KCL1 230222Z 06008KT 24/14 A3026 RMK A01 T02410137  RH  052%=      5-min Rain = 0
KCL1 230223Z 06007KT 24/14 A3026 RMK A01 T02410137  RH  052%=      5-min Rain = 0
KCL1 230224Z 06007KT 24/14 A3026 RMK A01 T02410137  RH  052%=      5-min Rain = 0
KCL1 230225Z 06007KT 24/14 A3027 RMK A01 T02400137  RH  052%=      5-min Rain = 0
KCL1 230226Z 06007KT 24/14 A3027 RMK A01 T02400137  RH  052%=      5-min Rain = 0
KCL1 230227Z 06007KT 24/14 A3027 RMK A01 T02400137  RH  052%=      5-min Rain = 0
KCL1 230228Z 06007KT 24/14 A3027 RMK A01 T02390137  RH  053%=      5-min Rain = 0
KCL1 230229Z 06007KT 24/14 A3027 RMK A01 T02400137  RH  053%=      5-min Rain = 0
KCL1 230230Z 06007KT 24/14 A3027 RMK A01 T02390137  RH  053%=      5-min Rain = 0
KCL1 230231Z 06007KT 24/14 A3027 RMK A01 T02380136  RH  053%=      5-min Rain = 0
KCL1 230232Z 06007KT 24/14 A3027 RMK A01 T02370136  RH  053%=      5-min Rain = 0
KCL1 230233Z 06007KT 24/14 A3027 RMK A01 T02360136  RH  053%=      5-min Rain = 0
KCL1 230234Z 06006KT 24/14 A3027 RMK A01 T02360136  RH  054%=      5-min Rain = 0
KCL1 230235Z 06007KT 24/14 A3027 RMK A01 T02350136  RH  054%=      5-min Rain = 0
KCL1 230236Z 06007KT 23/14 A3027 RMK A01 T02340136  RH  054%=      5-min Rain = 0
KCL1 230237Z 05006KT 23/14 A3027 RMK A01 T02340136  RH  054%=      5-min Rain = 0
KCL1 230238Z 05007KT 23/14 A3027 RMK A01 T02330136  RH  054%=      5-min Rain = 0
KCL1 230239Z 05006KT 23/14 A3027 RMK A01 T02330136  RH  054%=      5-min Rain = 0
KCL1 230240Z 06007KT 23/14 A3027 RMK A01 T02330136  RH  055%=      5-min Rain = 0
KCL1 230241Z 06007KT 23/14 A3028 RMK A01 T02320136  RH  055%=      5-min Rain = 0
KCL1 230242Z 06007KT 23/14 A3028 RMK A01 T02310136  RH  055%=      5-min Rain = 0
KCL1 230243Z 06007KT 23/14 A3028 RMK A01 T02300136  RH  055%=      5-min Rain = 0
KCL1 230244Z 06007KT 23/14 A3028 RMK A01 T02300136  RH  055%=      5-min Rain = 0
KCL1 230245Z 06007KT 23/14 A3028 RMK A01 T02290136  RH  056%=      5-min Rain = 0
KCL1 230246Z 06007KT 23/14 A3028 RMK A01 T02280136  RH  056%=      5-min Rain = 0
KCL1 230247Z 06007KT 23/14 A3028 RMK A01 T02280136  RH  056%=      5-min Rain = 0
KCL1 230248Z 06007KT 23/14 A3028 RMK A01 T02280137  RH  056%=      5-min Rain = 0
KCL1 230249Z 06007KT 23/14 A3028 RMK A01 T02280136  RH  056%=      5-min Rain = 0
KCL1 230250Z 06006KT 23/14 A3028 RMK A01 T02270136  RH  057%=      5-min Rain = 0
KCL1 230251Z 06007KT 23/14 A3028 RMK A01 T02270136  RH  057%=      5-min Rain = 0
KCL1 230252Z 06007KT 23/14 A3028 RMK A01 T02260136  RH  057%=      5-min Rain = 0
KCL1 230253Z 06007KT 23/14 A3028 RMK A01 T02260136  RH  057%=      5-min Rain = 0
KCL1 230254Z 06007KT 23/14 A3028 RMK A01 T02250136  RH  057%=      5-min Rain = 0
KCL1 230255Z 06007KT 23/14 A3028 RMK A01 T02250136  RH  057%=      5-min Rain = 0
KCL1 230256Z 06008KT 23/14 A3029 RMK A01 T02250136  RH  057%=      5-min Rain = 0
KCL1 230257Z 06008KT 23/14 A3029 RMK A01 T02250135  RH  057%=      5-min Rain = 0
KCL1 230258Z 06008KT 23/14 A3029 RMK A01 T02250135  RH  057%=      5-min Rain = 0
KCL1 230259Z 06008KT 23/14 A3029 RMK A01 T02250135  RH  057%=      5-min Rain = 0
KCL1 230300Z 06007KT 23/14 A3029 RMK A01 T02250135  RH  057%=      5-min Rain = 0
KCL1 230301Z 06007KT 23/14 A3029 RMK A01 T02250135  RH  057%=      5-min Rain = 0
KCL1 230302Z 06007KT 23/14 A3029 RMK A01 T02250135  RH  057%=      5-min Rain = 0
KCL1 230303Z 06007KT 23/14 A3029 RMK A01 T02250135  RH  057%=      5-min Rain = 0
KCL1 230304Z 06007KT 23/14 A3029 RMK A01 T02250135  RH  057%=      5-min Rain = 0
KCL1 230305Z 06007KT 22/14 A3029 RMK A01 T02240135  RH  057%=      5-min Rain = 0
KCL1 230306Z 06007KT 22/14 A3029 RMK A01 T02240135  RH  057%=      5-min Rain = 0
KCL1 230307Z 06007KT 22/14 A3029 RMK A01 T02230135  RH  057%=      5-min Rain = 0
KCL1 230308Z 06007KT 22/14 A303 RMK A01 T02220135  RH  058%=      5-min Rain = 0
KCL1 230309Z 06007KT 22/14 A303 RMK A01 T02210135  RH  058%=      5-min Rain = 0
KCL1 230310Z 06007KT 22/14 A303 RMK A01 T02210135  RH  058%=      5-min Rain = 0
KCL1 230311Z 06007KT 22/14 A303 RMK A01 T02200135  RH  058%=      5-min Rain = 0
KCL1 230312Z 06007KT 22/14 A303 RMK A01 T02200135  RH  059%=      5-min Rain = 0
KCL1 230313Z 06007KT 22/14 A303 RMK A01 T02190135  RH  059%=      5-min Rain = 0
KCL1 230314Z 06007KT 22/14 A303 RMK A01 T02190135  RH  059%=      5-min Rain = 0
KCL1 230315Z 06007KT 22/14 A303 RMK A01 T02190135  RH  059%=      5-min Rain = 0
KCL1 230316Z 06007KT 22/14 A303 RMK A01 T02180135  RH  059%=      5-min Rain = 0
KCL1 230317Z 06007KT 22/14 A303 RMK A01 T02180135  RH  059%=      5-min Rain = 0
KCL1 230318Z 06007KT 22/14 A303 RMK A01 T02170135  RH  059%=      5-min Rain = 0
KCL1 230319Z 06007KT 22/13 A303 RMK A01 T02170134  RH  059%=      5-min Rain = 0
KCL1 230320Z 06007KT 22/13 A303 RMK A01 T02160134  RH  060%=      5-min Rain = 0
KCL1 230321Z 06007KT 22/14 A303 RMK A01 T02160135  RH  060%=      5-min Rain = 0
KCL1 230322Z 07007KT 22/14 A303 RMK A01 T02160135  RH  060%=      5-min Rain = 0
KCL1 230323Z 07008KT 22/14 A3031 RMK A01 T02160135  RH  060%=      5-min Rain = 0
KCL1 230324Z 06008KT 22/13 A3031 RMK A01 T02160134  RH  060%=      5-min Rain = 0
KCL1 230325Z 07008KT 22/13 A3031 RMK A01 T02160134  RH  060%=      5-min Rain = 0
KCL1 230326Z 07008KT 22/14 A3031 RMK A01 T02160135  RH  060%=      5-min Rain = 0
KCL1 230327Z 06008KT 22/13 A3031 RMK A01 T02160134  RH  060%=      5-min Rain = 0
KCL1 230328Z 06007KT 22/13 A3031 RMK A01 T02160134  RH  060%=      5-min Rain = 0
KCL1 230329Z 06008KT 22/14 A3031 RMK A01 T02160135  RH  060%=      5-min Rain = 0
KCL1 230330Z 07007KT 22/13 A3031 RMK A01 T02160134  RH  060%=      5-min Rain = 0
KCL1 230331Z 07008KT 22/14 A3031 RMK A01 T02160135  RH  060%=      5-min Rain = 0
KCL1 230332Z 06008KT 22/13 A3031 RMK A01 T02160134  RH  060%=      5-min Rain = 0
KCL1 230333Z 07008KT 22/13 A3031 RMK A01 T02160134  RH  060%=      5-min Rain = 0
KCL1 230334Z 07008KT 22/14 A3031 RMK A01 T02170135  RH  060%=      5-min Rain = 0
KCL1 230335Z 07007KT 22/14 A3031 RMK A01 T02170135  RH  060%=      5-min Rain = 0
KCL1 230336Z 07007KT 22/14 A3031 RMK A01 T02170135  RH  059%=      5-min Rain = 0
KCL1 230337Z 07008KT 22/14 A3031 RMK A01 T02170135  RH  059%=      5-min Rain = 0
KCL1 230338Z 07008KT 22/14 A3031 RMK A01 T02170135  RH  059%=      5-min Rain = 0
KCL1 230339Z 07008KT 22/14 A3031 RMK A01 T02180135  RH  059%=      5-min Rain = 0
KCL1 230340Z 07008KT 22/14 A3031 RMK A01 T02180135  RH  059%=      5-min Rain = 0
KCL1 230341Z 07008KT 22/14 A3031 RMK A01 T02180135  RH  059%=      5-min Rain = 0
KCL1 230342Z 07008KT 22/14 A3031 RMK A01 T02180135  RH  059%=      5-min Rain = 0
KCL1 230343Z 07008KT 22/14 A3031 RMK A01 T02180135  RH  059%=      5-min Rain = 0
KCL1 230344Z 07008KT 22/14 A3032 RMK A01 T02180135  RH  059%=      5-min Rain = 0
KCL1 230345Z 07008KT 22/14 A3032 RMK A01 T02180135  RH  059%=      5-min Rain = 0
KCL1 230346Z 07008KT 22/14 A3032 RMK A01 T02170135  RH  059%=      5-min Rain = 0
KCL1 230347Z 07007KT 22/14 A3032 RMK A01 T02170135  RH  060%=      5-min Rain = 0
KCL1 230348Z 07007KT 22/14 A3032 RMK A01 T02160135  RH  060%=      5-min Rain = 0
KCL1 230349Z 07007KT 22/13 A3032 RMK A01 T02150134  RH  060%=      5-min Rain = 0
KCL1 230350Z 07007KT 22/14 A3032 RMK A01 T02150135  RH  060%=      5-min Rain = 0
KCL1 230351Z 07007KT 21/14 A3032 RMK A01 T02140135  RH  060%=      5-min Rain = 0
KCL1 230352Z 07007KT 21/14 A3032 RMK A01 T02140135  RH  060%=      5-min Rain = 0
KCL1 230353Z 07007KT 21/13 A3032 RMK A01 T02140134  RH  061%=      5-min Rain = 0
KCL1 230354Z 07008KT 21/14 A3032 RMK A01 T02140135  RH  061%=      5-min Rain = 0
KCL1 230355Z 07007KT 21/14 A3032 RMK A01 T02130135  RH  061%=      5-min Rain = 0
KCL1 230356Z 07008KT 21/13 A3032 RMK A01 T02120134  RH  061%=      5-min Rain = 0
KCL1 230357Z 07008KT 21/13 A3032 RMK A01 T02120134  RH  061%=      5-min Rain = 0
KCL1 230358Z 07008KT 21/13 A3032 RMK A01 T02120134  RH  061%=      5-min Rain = 0
KCL1 230359Z 07008KT 21/13 A3032 RMK A01 T02120134  RH  061%=      5-min Rain = 0
KCL1 230400Z 07008KT 21/13 A3032 RMK A01 T02120134  RH  061%=      5-min Rain = 0
KCL1 230401Z 07008KT 21/13 A3032 RMK A01 T02110134  RH  061%=      5-min Rain = 0
KCL1 230402Z 07007KT 21/13 A3032 RMK A01 T02110134  RH  061%=      5-min Rain = 0
KCL1 230403Z 07008KT 21/13 A3032 RMK A01 T02110134  RH  062%=      5-min Rain = 0
KCL1 230404Z 07007KT 21/13 A3032 RMK A01 T02110134  RH  062%=      5-min Rain = 0
KCL1 230405Z 07007KT 21/13 A3032 RMK A01 T02100134  RH  062%=      5-min Rain = 0
KCL1 230406Z 08007KT 21/13 A3032 RMK A01 T02100134  RH  062%=      5-min Rain = 0
KCL1 230407Z 08007KT 21/13 A3032 RMK A01 T02100134  RH  062%=      5-min Rain = 0
KCL1 230408Z 08007KT 21/13 A3032 RMK A01 T02100134  RH  062%=      5-min Rain = 0
KCL1 230409Z 07007KT 21/13 A3032 RMK A01 T02100134  RH  062%=      5-min Rain = 0
KCL1 230410Z 07007KT 21/13 A3032 RMK A01 T02090134  RH  062%=      5-min Rain = 0
KCL1 230411Z 07007KT 21/13 A3032 RMK A01 T02090134  RH  062%=      5-min Rain = 0
KCL1 230412Z 07007KT 21/13 A3032 RMK A01 T02080134  RH  062%=      5-min Rain = 0
KCL1 230413Z 07008KT 21/13 A3032 RMK A01 T02080134  RH  062%=      5-min Rain = 0
KCL1 230414Z 07008KT 21/13 A3032 RMK A01 T02080134  RH  063%=      5-min Rain = 0
KCL1 230415Z 07008KT 21/13 A3032 RMK A01 T02070134  RH  063%=      5-min Rain = 0
KCL1 230416Z 07007KT 21/13 A3032 RMK A01 T02080134  RH  063%=      5-min Rain = 0
KCL1 230417Z 08007KT 21/13 A3032 RMK A01 T02080134  RH  063%=      5-min Rain = 0
KCL1 230418Z 08007KT 21/13 A3032 RMK A01 T02080134  RH  063%=      5-min Rain = 0
KCL1 230419Z 08008KT 21/13 A3032 RMK A01 T02070134  RH  063%=      5-min Rain = 0
KCL1 230420Z 08008KT 21/13 A3032 RMK A01 T02070134  RH  063%=      5-min Rain = 0
KCL1 230421Z 08008KT 21/13 A3032 RMK A01 T02060134  RH  063%=      5-min Rain = 0
KCL1 230422Z 07008KT 21/13 A3032 RMK A01 T02070134  RH  063%=      5-min Rain = 0
KCL1 230423Z 07008KT 21/13 A3032 RMK A01 T02060134  RH  063%=      5-min Rain = 0
KCL1 230424Z 07008KT 21/13 A3032 RMK A01 T02060134  RH  063%=      5-min Rain = 0
KCL1 230425Z 07008KT 21/13 A3032 RMK A01 T02060134  RH  063%=      5-min Rain = 0
KCL1 230426Z 07008KT 21/13 A3032 RMK A01 T02060133  RH  063%=      5-min Rain = 0
KCL1 230427Z 07008KT 21/13 A3032 RMK A01 T02050133  RH  063%=      5-min Rain = 0
KCL1 230428Z 07008KT 21/13 A3032 RMK A01 T02050134  RH  063%=      5-min Rain = 0
KCL1 230429Z 07008KT 21/13 A3032 RMK A01 T02050134  RH  063%=      5-min Rain = 0
KCL1 230430Z 07008KT 21/13 A3032 RMK A01 T02050134  RH  063%=      5-min Rain = 0
KCL1 230431Z 07008KT 21/13 A3032 RMK A01 T02050133  RH  064%=      5-min Rain = 0
KCL1 230432Z 07008KT 20/13 A3032 RMK A01 T02040134  RH  064%=      5-min Rain = 0
KCL1 230433Z 07007KT 20/13 A3032 RMK A01 T02040134  RH  064%=      5-min Rain = 0
KCL1 230434Z 07008KT 20/13 A3032 RMK A01 T02030133  RH  064%=      5-min Rain = 0
KCL1 230435Z 07007KT 20/13 A3032 RMK A01 T02030134  RH  064%=      5-min Rain = 0
KCL1 230436Z 07008KT 20/13 A3032 RMK A01 T02030134  RH  064%=      5-min Rain = 0
KCL1 230437Z 07008KT 20/13 A3032 RMK A01 T02030134  RH  064%=      5-min Rain = 0
KCL1 230438Z 07007KT 20/13 A3032 RMK A01 T02030134  RH  064%=      5-min Rain = 0
KCL1 230439Z 07008KT 20/13 A3032 RMK A01 T02020133  RH  065%=      5-min Rain = 0
KCL1 230440Z 07007KT 20/13 A3032 RMK A01 T02020134  RH  065%=      5-min Rain = 0
KCL1 230441Z 07008KT 20/13 A3032 RMK A01 T02020134  RH  065%=      5-min Rain = 0
KCL1 230442Z 07008KT 20/13 A3032 RMK A01 T02020133  RH  065%=      5-min Rain = 0
KCL1 230443Z 07008KT 20/13 A3032 RMK A01 T02020133  RH  065%=      5-min Rain = 0
KCL1 230444Z 06008KT 20/13 A3032 RMK A01 T02020134  RH  065%=      5-min Rain = 0
KCL1 230445Z 07008KT 20/13 A3032 RMK A01 T02020133  RH  065%=      5-min Rain = 0
KCL1 230446Z 07008KT 20/13 A3032 RMK A01 T02020133  RH  065%=      5-min Rain = 0
KCL1 230447Z 07008KT 20/13 A3032 RMK A01 T02020133  RH  065%=      5-min Rain = 0
KCL1 230448Z 07007KT 20/13 A3032 RMK A01 T02020133  RH  065%=      5-min Rain = 0
KCL1 230449Z 07008KT 20/13 A3032 RMK A01 T02020133  RH  065%=      5-min Rain = 0
KCL1 230450Z 06008KT 20/13 A3032 RMK A01 T02020133  RH  065%=      5-min Rain = 0
KCL1 230451Z 07008KT 20/13 A3032 RMK A01 T02010133  RH  065%=      5-min Rain = 0
KCL1 230452Z 06008KT 20/13 A3032 RMK A01 T02010133  RH  065%=      5-min Rain = 0
KCL1 230453Z 06008KT 20/13 A3032 RMK A01 T02000133  RH  065%=      5-min Rain = 0
KCL1 230454Z 07008KT 20/13 A3032 RMK A01 T02000133  RH  065%=      5-min Rain = 0
KCL1 230455Z 07008KT 20/13 A3032 RMK A01 T02000133  RH  066%=      5-min Rain = 0
KCL1 230456Z 07008KT 20/13 A3032 RMK A01 T01990134  RH  066%=      5-min Rain = 0
KCL1 230457Z 07008KT 20/13 A3032 RMK A01 T01990133  RH  066%=      5-min Rain = 0
KCL1 230458Z 07008KT 20/13 A3032 RMK A01 T01990133  RH  066%=      5-min Rain = 0
KCL1 230459Z 07008KT 20/13 A3032 RMK A01 T01980133  RH  066%=      5-min Rain = 0

Page generated in 0.1252 seconds.